Time,TemperatureF,DewpointF,PressureIn,WindDirection,WindDirectionDegrees,WindSpeedMPH,WindSpeedGustMPH,Humidity,HourlyPrecipIn,Conditions,Clouds,dailyrainin,SoftwareType,DateUTC
2013-10-26 00:00:00,50.4,26.3,28.61,West,270,8.7,8.7,39,0.00,CLR,,0.00,WeatherDisplay:10.37,2013-10-26 05:00:00,
2013-10-26 00:02:00,50.4,26.3,28.61,SSW,202,12.7,12.7,39,0.00,CLR,,0.00,WeatherDisplay:10.37,2013-10-26 05:02:00,
2013-10-26 00:03:00,50.4,26.3,28.61,NW,315,12.7,12.7,39,0.00,CLR,,0.00,WeatherDisplay:10.37,2013-10-26 05:03:00,
2013-10-26 00:04:00,50.4,26.3,28.61,NW,315,11.5,11.5,39,0.00,CLR,,0.00,WeatherDisplay:10.37,2013-10-26 05:04:00,
2013-10-26 00:06:00,50.4,26.3,28.61,SSW,202,8.1,8.1,39,0.00,CLR,,0.00,WeatherDisplay:10.37,2013-10-26 05:06:00,
2013-10-26 00:07:00,50.4,26.3,28.61,SW,225,12.7,12.7,39,0.00,CLR,,0.00,WeatherDisplay:10.37,2013-10-26 05:07:00,
2013-10-26 00:09:00,50.4,26.3,28.61,WSW,248,11.5,11.5,39,0.00,CLR,,0.00,WeatherDisplay:10.37,2013-10-26 05:09:00,
2013-10-26 00:11:00,50.4,26.3,28.58,NW,315,15.0,15.0,39,0.00,CLR,,0.00,WeatherDisplay:10.37,2013-10-26 05:11:00,
2013-10-26 00:12:00,50.4,26.3,28.58,West,270,15.0,15.0,39,0.00,CLR,,0.00,WeatherDisplay:10.37,2013-10-26 05:12:00,
2013-10-26 00:14:00,50.4,26.3,28.58,ESE,112,8.1,8.1,39,0.00,CLR,,0.00,WeatherDisplay:10.37,2013-10-26 05:14:00,
2013-10-26 00:16:00,50.4,26.3,28.58,SW,225,19.6,19.6,39,0.00,CLR,,0.00,WeatherDisplay:10.37,2013-10-26 05:16:00,
2013-10-26 00:17:00,50.4,26.3,28.58,WSW,248,10.4,10.4,39,0.00,CLR,,0.00,WeatherDisplay:10.37,2013-10-26 05:17:00,
2013-10-26 00:19:00,50.2,26.1,28.58,South,180,4.6,4.6,39,0.00,CLR,,0.00,WeatherDisplay:10.37,2013-10-26 05:19:00,
2013-10-26 00:20:00,50.2,26.1,28.58,WSW,248,12.7,12.7,39,0.00,CLR,,0.00,WeatherDisplay:10.37,2013-10-26 05:20:00,
2013-10-26 00:21:00,50.2,26.1,28.58,WNW,292,9.2,9.2,39,0.00,CLR,,0.00,WeatherDisplay:10.37,2013-10-26 05:21:00,
2013-10-26 00:22:00,50.2,26.1,28.58,South,180,6.9,6.9,39,0.00,CLR,,0.00,WeatherDisplay:10.37,2013-10-26 05:22:00,
2013-10-26 00:23:00,50.2,26.1,28.58,SE,135,6.9,6.9,39,0.00,CLR,,0.00,WeatherDisplay:10.37,2013-10-26 05:23:00,
2013-10-26 00:24:00,50.2,26.1,28.58,SSW,202,11.5,11.5,39,0.00,CLR,,0.00,WeatherDisplay:10.37,2013-10-26 05:24:00,
2013-10-26 00:25:00,50.2,26.1,28.61,SSW,202,11.5,11.5,39,0.00,CLR,,0.00,WeatherDisplay:10.37,2013-10-26 05:25:00,
2013-10-26 00:27:00,50.2,26.1,28.61,WNW,292,9.2,9.2,39,0.00,CLR,,0.00,WeatherDisplay:10.37,2013-10-26 05:27:00,
2013-10-26 00:28:00,50.2,26.1,28.61,SE,135,5.8,6.2,39,0.00,CLR,,0.00,WeatherDisplay:10.37,2013-10-26 05:28:00,
2013-10-26 00:29:00,50.2,26.1,28.61,West,270,8.7,8.7,39,0.00,CLR,,0.00,WeatherDisplay:10.37,2013-10-26 05:29:00,
2013-10-26 00:30:00,50.2,26.1,28.61,WNW,292,5.8,7.8,39,0.00,CLR,,0.00,WeatherDisplay:10.37,2013-10-26 05:30:00,
2013-10-26 00:32:00,50.2,26.1,28.61,ENE,68,8.1,8.1,39,0.00,CLR,,0.00,WeatherDisplay:10.37,2013-10-26 05:32:00,
2013-10-26 00:33:00,50.2,26.1,28.61,South,180,7.4,7.4,39,0.00,CLR,,0.00,WeatherDisplay:10.37,2013-10-26 05:33:00,
2013-10-26 00:34:00,50.2,26.1,28.61,NE,45,6.9,7.6,39,0.00,CLR,,0.00,WeatherDisplay:10.37,2013-10-26 05:34:00,
2013-10-26 00:35:00,50.2,26.1,28.61,NE,45,10.4,10.4,39,0.00,CLR,,0.00,WeatherDisplay:10.37,2013-10-26 05:35:00,
2013-10-26 00:36:00,50.2,26.1,28.61,SE,135,13.8,13.8,39,0.00,CLR,,0.00,WeatherDisplay:10.37,2013-10-26 05:36:00,
2013-10-26 00:38:00,50.2,26.1,28.61,ESE,112,8.1,8.1,39,0.00,CLR,,0.00,WeatherDisplay:10.37,2013-10-26 05:38:00,
2013-10-26 00:39:00,50.2,26.1,28.61,West,270,9.2,9.2,39,0.00,CLR,,0.00,WeatherDisplay:10.37,2013-10-26 05:39:00,
2013-10-26 00:40:00,50.2,26.1,28.58,West,270,6.9,6.9,39,0.00,CLR,,0.00,WeatherDisplay:10.37,2013-10-26 05:40:00,
2013-10-26 00:41:00,50.0,26.0,28.58,SW,225,6.9,6.9,39,0.00,CLR,,0.00,WeatherDisplay:10.37,2013-10-26 05:41:00,
2013-10-26 00:43:00,50.0,26.0,28.58,SW,225,8.1,8.1,39,0.00,CLR,,0.00,WeatherDisplay:10.37,2013-10-26 05:43:00,
2013-10-26 00:44:00,49.8,26.4,28.58,ENE,68,6.9,6.9,40,0.00,CLR,,0.00,WeatherDisplay:10.37,2013-10-26 05:44:00,
2013-10-26 00:45:00,49.8,26.4,28.58,SSE,158,5.8,5.8,40,0.00,CLR,,0.00,WeatherDisplay:10.37,2013-10-26 05:45:00,
2013-10-26 00:46:00,49.8,26.4,28.58,West,270,10.9,10.9,40,0.00,CLR,,0.00,WeatherDisplay:10.37,2013-10-26 05:46:00,
2013-10-26 00:48:00,49.8,26.4,28.58,SW,225,15.0,15.0,40,0.00,CLR,,0.00,WeatherDisplay:10.37,2013-10-26 05:48:00,
2013-10-26 00:49:00,49.8,26.4,28.58,SW,225,9.2,9.2,40,0.00,CLR,,0.00,WeatherDisplay:10.37,2013-10-26 05:49:00,
2013-10-26 00:50:00,49.8,26.4,28.58,WNW,292,9.2,9.2,40,0.00,CLR,,0.00,WeatherDisplay:10.37,2013-10-26 05:50:00,
2013-10-26 00:51:00,49.6,26.3,28.58,WNW,292,5.8,5.8,40,0.00,CLR,,0.00,WeatherDisplay:10.37,2013-10-26 05:51:00,
2013-10-26 00:52:00,49.6,26.3,28.58,WSW,248,5.8,5.8,40,0.00,CLR,,0.00,WeatherDisplay:10.37,2013-10-26 05:52:00,
2013-10-26 00:53:00,49.6,26.3,28.58,WSW,248,5.8,5.8,40,0.00,CLR,,0.00,WeatherDisplay:10.37,2013-10-26 05:53:00,
2013-10-26 00:54:00,49.8,26.4,28.56,NW,315,15.0,15.0,40,0.00,CLR,,0.00,WeatherDisplay:10.37,2013-10-26 05:54:00,
2013-10-26 00:55:00,49.8,26.4,28.56,SW,225,5.8,7.1,40,0.00,CLR,,0.00,WeatherDisplay:10.37,2013-10-26 05:55:00,
2013-10-26 00:57:00,49.8,26.4,28.56,West,270,4.6,4.6,40,0.00,CLR,,0.00,WeatherDisplay:10.37,2013-10-26 05:57:00,
2013-10-26 00:58:00,49.8,26.4,28.56,South,180,9.2,9.2,40,0.00,CLR,,0.00,WeatherDisplay:10.37,2013-10-26 05:58:00,
2013-10-26 00:59:00,49.8,26.4,28.56,ENE,68,5.8,6.4,40,0.00,CLR,,0.00,WeatherDisplay:10.37,2013-10-26 05:59:00,
2013-10-26 01:00:00,49.8,26.4,28.56,ENE,68,9.2,9.2,40,0.00,CLR,,0.00,WeatherDisplay:10.37,2013-10-26 06:00:00,
2013-10-26 01:01:00,49.8,26.4,28.56,SW,225,12.8,12.8,40,0.00,CLR,,0.00,WeatherDisplay:10.37,2013-10-26 06:01:00,
2013-10-26 01:02:00,50.0,26.6,28.56,NW,315,12.7,12.7,40,0.00,CLR,,0.00,WeatherDisplay:10.37,2013-10-26 06:02:00,
2013-10-26 01:03:00,50.0,26.6,28.56,West,270,8.1,8.1,40,0.00,CLR,,0.00,WeatherDisplay:10.37,2013-10-26 06:03:00,
2013-10-26 01:05:00,50.0,26.6,28.56,West,269,6.0,17.0,40,0.00,CLR,,0.00,WeatherDisplay:10.37,2013-10-26 06:05:00,
2013-10-26 01:06:00,50.0,26.6,28.56,WNW,292,12.7,12.7,40,0.00,CLR,,0.00,WeatherDisplay:10.37,2013-10-26 06:06:00,
2013-10-26 01:07:00,50.2,26.8,28.56,SW,225,6.9,6.9,40,0.00,CLR,,0.00,WeatherDisplay:10.37,2013-10-26 06:07:00,
2013-10-26 01:08:00,50.2,26.8,28.56,South,180,9.2,9.2,40,0.00,CLR,,0.00,WeatherDisplay:10.37,2013-10-26 06:08:00,
2013-10-26 01:10:00,50.2,26.8,28.56,West,270,10.4,10.4,40,0.00,CLR,,0.00,WeatherDisplay:10.37,2013-10-26 06:10:00,
2013-10-26 01:11:00,50.2,26.8,28.56,NW,315,6.7,6.7,40,0.00,CLR,,0.00,WeatherDisplay:10.37,2013-10-26 06:11:00,
2013-10-26 01:13:00,50.2,26.8,28.56,WSW,248,5.8,5.8,40,0.00,CLR,,0.00,WeatherDisplay:10.37,2013-10-26 06:13:00,
2013-10-26 01:15:00,50.2,26.8,28.56,SW,225,4.6,4.6,40,0.00,CLR,,0.00,WeatherDisplay:10.37,2013-10-26 06:15:00,
2013-10-26 01:16:00,50.2,26.8,28.56,NNW,338,5.8,5.8,40,0.00,CLR,,0.00,WeatherDisplay:10.37,2013-10-26 06:16:00,
2013-10-26 01:18:00,50.2,26.8,28.56,WSW,248,10.0,10.0,40,0.00,CLR,,0.00,WeatherDisplay:10.37,2013-10-26 06:18:00,
2013-10-26 01:19:00,50.2,26.8,28.56,WSW,248,10.4,10.4,40,0.00,CLR,,0.00,WeatherDisplay:10.37,2013-10-26 06:19:00,
2013-10-26 01:20:00,50.2,26.8,28.56,SW,225,9.2,9.2,40,0.00,CLR,,0.00,WeatherDisplay:10.37,2013-10-26 06:20:00,
2013-10-26 01:21:00,50.2,26.8,28.56,SSE,158,10.4,10.4,40,0.00,CLR,,0.00,WeatherDisplay:10.37,2013-10-26 06:21:00,
2013-10-26 01:22:00,50.2,26.8,28.56,SSE,158,10.4,10.4,40,0.00,CLR,,0.00,WeatherDisplay:10.37,2013-10-26 06:22:00,
2013-10-26 01:23:00,50.2,26.8,28.56,SSW,202,14.3,14.3,40,0.00,CLR,,0.00,WeatherDisplay:10.37,2013-10-26 06:23:00,
2013-10-26 01:24:00,50.2,26.8,28.56,SSW,202,14.3,14.3,40,0.00,CLR,,0.00,WeatherDisplay:10.37,2013-10-26 06:24:00,
2013-10-26 01:25:00,50.2,26.8,28.56,South,180,13.8,13.8,40,0.00,CLR,,0.00,WeatherDisplay:10.37,2013-10-26 06:25:00,
2013-10-26 01:27:00,50.0,26.6,28.56,West,270,8.1,8.1,40,0.00,CLR,,0.00,WeatherDisplay:10.37,2013-10-26 06:27:00,
2013-10-26 01:29:00,50.0,26.6,28.56,West,270,4.7,4.9,40,0.00,CLR,,0.00,WeatherDisplay:10.37,2013-10-26 06:29:00,
2013-10-26 01:31:00,50.0,26.6,28.56,WNW,292,10.4,10.4,40,0.00,CLR,,0.00,WeatherDisplay:10.37,2013-10-26 06:31:00,
2013-10-26 01:32:00,50.0,26.6,28.56,SSW,202,13.8,13.8,40,0.00,CLR,,0.00,WeatherDisplay:10.37,2013-10-26 06:32:00,
2013-10-26 01:34:00,50.2,26.8,28.56,SW,225,16.1,16.1,40,0.00,CLR,,0.00,WeatherDisplay:10.37,2013-10-26 06:34:00,
2013-10-26 01:35:00,50.2,26.8,28.56,WSW,238,6.0,16.0,40,0.00,CLR,,0.00,WeatherDisplay:10.37,2013-10-26 06:35:00,
2013-10-26 01:37:00,50.2,26.8,28.56,WNW,292,9.2,9.2,40,0.00,CLR,,0.00,WeatherDisplay:10.37,2013-10-26 06:37:00,
2013-10-26 01:39:00,50.2,26.8,28.56,WNW,292,4.6,4.6,40,0.00,CLR,,0.00,WeatherDisplay:10.37,2013-10-26 06:39:00,
2013-10-26 01:40:00,50.2,26.8,28.56,WNW,292,7.8,7.8,40,0.00,CLR,,0.00,WeatherDisplay:10.37,2013-10-26 06:40:00,
2013-10-26 01:42:00,50.2,26.8,28.56,South,180,10.4,10.4,40,0.00,CLR,,0.00,WeatherDisplay:10.37,2013-10-26 06:42:00,
2013-10-26 01:43:00,50.2,27.4,28.56,NW,315,6.9,6.9,41,0.00,CLR,,0.00,WeatherDisplay:10.37,2013-10-26 06:43:00,
2013-10-26 01:44:00,50.2,27.4,28.56,WSW,248,5.8,5.8,41,0.00,CLR,,0.00,WeatherDisplay:10.37,2013-10-26 06:44:00,
2013-10-26 01:45:00,50.2,27.4,28.56,West,270,10.4,10.4,41,0.00,CLR,,0.00,WeatherDisplay:10.37,2013-10-26 06:45:00,
2013-10-26 01:47:00,50.4,27.5,28.56,SSW,202,12.7,12.7,41,0.00,CLR,,0.00,WeatherDisplay:10.37,2013-10-26 06:47:00,
2013-10-26 01:48:00,50.4,27.5,28.56,West,270,8.7,8.7,41,0.00,CLR,,0.00,WeatherDisplay:10.37,2013-10-26 06:48:00,
2013-10-26 01:49:00,50.4,27.5,28.56,SW,225,9.2,9.2,41,0.00,CLR,,0.00,WeatherDisplay:10.37,2013-10-26 06:49:00,
2013-10-26 01:50:00,50.4,27.5,28.56,North,0,6.9,6.9,41,0.00,CLR,,0.00,WeatherDisplay:10.37,2013-10-26 06:50:00,
2013-10-26 01:52:00,50.4,27.5,28.56,WSW,248,10.4,10.4,41,0.00,CLR,,0.00,WeatherDisplay:10.37,2013-10-26 06:52:00,
2013-10-26 01:53:00,50.4,27.5,28.56,South,180,10.4,10.4,41,0.00,CLR,,0.00,WeatherDisplay:10.37,2013-10-26 06:53:00,
2013-10-26 01:54:00,50.2,27.4,28.56,SSW,202,6.9,6.9,41,0.00,CLR,,0.00,WeatherDisplay:10.37,2013-10-26 06:54:00,
2013-10-26 01:55:00,50.2,27.4,28.56,West,270,6.9,6.9,41,0.00,CLR,,0.00,WeatherDisplay:10.37,2013-10-26 06:55:00,
2013-10-26 01:56:00,50.2,27.4,28.56,WNW,292,8.1,8.1,41,0.00,CLR,,0.00,WeatherDisplay:10.37,2013-10-26 06:56:00,
2013-10-26 01:57:00,50.2,27.4,28.56,West,270,10.9,10.9,41,0.00,CLR,,0.00,WeatherDisplay:10.37,2013-10-26 06:57:00,
2013-10-26 01:58:00,50.2,27.4,28.56,SSW,202,11.5,11.5,41,0.00,CLR,,0.00,WeatherDisplay:10.37,2013-10-26 06:58:00,
2013-10-26 01:59:00,50.0,27.2,28.56,ESE,112,15.0,15.0,41,0.00,CLR,,0.00,WeatherDisplay:10.37,2013-10-26 06:59:00,
2013-10-26 02:00:00,50.2,27.4,28.56,WSW,248,15.0,15.0,41,0.00,CLR,,0.00,WeatherDisplay:10.37,2013-10-26 07:00:00,
2013-10-26 02:01:00,50.2,27.4,28.56,West,270,8.1,8.1,41,0.00,CLR,,0.00,WeatherDisplay:10.37,2013-10-26 07:01:00,
2013-10-26 02:02:00,50.0,27.2,28.56,West,270,9.2,9.2,41,0.00,CLR,,0.00,WeatherDisplay:10.37,2013-10-26 07:02:00,
2013-10-26 02:04:00,50.0,27.2,28.56,West,270,5.8,5.9,41,0.00,CLR,,0.00,WeatherDisplay:10.37,2013-10-26 07:04:00,
2013-10-26 02:05:00,50.0,27.2,28.56,WSW,255,7.0,10.0,41,0.00,CLR,,0.00,WeatherDisplay:10.37,2013-10-26 07:05:00,
2013-10-26 02:06:00,50.0,27.8,28.56,SSW,202,8.1,8.1,42,0.00,CLR,,0.00,WeatherDisplay:10.37,2013-10-26 07:06:00,
2013-10-26 02:07:00,49.8,27.6,28.56,WSW,248,12.7,12.7,42,0.00,CLR,,0.00,WeatherDisplay:10.37,2013-10-26 07:07:00,
2013-10-26 02:09:00,49.8,27.6,28.56,NW,315,8.1,8.1,42,0.00,CLR,,0.00,WeatherDisplay:10.37,2013-10-26 07:09:00,
2013-10-26 02:10:00,49.6,27.5,28.53,East,90,7.6,7.6,42,0.00,CLR,,0.00,WeatherDisplay:10.37,2013-10-26 07:10:00,
2013-10-26 02:11:00,49.8,27.6,28.53,South,180,16.1,16.1,42,0.00,CLR,,0.00,WeatherDisplay:10.37,2013-10-26 07:11:00,
2013-10-26 02:12:00,49.6,28.0,28.53,WSW,248,16.1,16.1,43,0.00,CLR,,0.00,WeatherDisplay:10.37,2013-10-26 07:12:00,
2013-10-26 02:13:00,49.6,28.0,28.53,South,180,10.5,10.5,43,0.00,CLR,,0.00,WeatherDisplay:10.37,2013-10-26 07:13:00,
2013-10-26 02:14:00,49.5,27.9,28.53,NW,315,10.4,10.4,43,0.00,CLR,,0.00,WeatherDisplay:10.37,2013-10-26 07:14:00,
2013-10-26 02:15:00,49.5,27.9,28.53,West,270,7.6,7.6,43,0.00,CLR,,0.00,WeatherDisplay:10.37,2013-10-26 07:15:00,
2013-10-26 02:16:00,49.5,27.9,28.53,West,270,11.8,11.8,43,0.00,CLR,,0.00,WeatherDisplay:10.37,2013-10-26 07:16:00,
2013-10-26 02:17:00,49.5,27.9,28.53,West,270,11.5,11.5,43,0.00,CLR,,0.00,WeatherDisplay:10.37,2013-10-26 07:17:00,
2013-10-26 02:18:00,49.3,27.7,28.53,WNW,292,8.1,8.1,43,0.00,CLR,,0.00,WeatherDisplay:10.37,2013-10-26 07:18:00,
2013-10-26 02:20:00,49.3,28.3,28.53,West,270,10.4,10.4,44,0.00,CLR,,0.00,WeatherDisplay:10.37,2013-10-26 07:20:00,
2013-10-26 02:21:00,49.3,28.3,28.53,North,0,10.4,10.4,44,0.00,CLR,,0.00,WeatherDisplay:10.37,2013-10-26 07:21:00,
2013-10-26 02:23:00,49.1,28.1,28.53,West,270,10.5,10.5,44,0.00,CLR,,0.00,WeatherDisplay:10.37,2013-10-26 07:23:00,
2013-10-26 02:25:00,49.1,28.1,28.56,WSW,248,8.1,8.1,44,0.00,CLR,,0.00,WeatherDisplay:10.37,2013-10-26 07:25:00,
2013-10-26 02:26:00,49.1,28.1,28.56,NW,315,5.8,5.8,44,0.00,CLR,,0.00,WeatherDisplay:10.37,2013-10-26 07:26:00,
2013-10-26 02:28:00,48.9,28.5,28.56,WSW,248,12.7,12.7,45,0.00,CLR,,0.00,WeatherDisplay:10.37,2013-10-26 07:28:00,
2013-10-26 02:29:00,48.9,28.5,28.56,West,270,13.8,13.8,45,0.00,CLR,,0.00,WeatherDisplay:10.37,2013-10-26 07:29:00,
2013-10-26 02:30:00,48.9,28.5,28.56,WNW,292,6.9,6.9,45,0.00,CLR,,0.00,WeatherDisplay:10.37,2013-10-26 07:30:00,
2013-10-26 02:31:00,48.9,28.5,28.56,West,270,5.8,5.8,45,0.00,CLR,,0.00,WeatherDisplay:10.37,2013-10-26 07:31:00,
2013-10-26 02:33:00,48.7,28.3,28.56,SE,135,8.5,8.5,45,0.00,CLR,,0.00,WeatherDisplay:10.37,2013-10-26 07:33:00,
2013-10-26 02:34:00,48.7,28.9,28.56,West,270,9.2,9.2,46,0.00,CLR,,0.00,WeatherDisplay:10.37,2013-10-26 07:34:00,
2013-10-26 02:35:00,48.7,28.3,28.56,WSW,248,8.1,8.1,45,0.00,CLR,,0.00,WeatherDisplay:10.37,2013-10-26 07:35:00,
2013-10-26 02:36:00,48.7,28.9,28.56,WNW,292,10.4,10.4,46,0.00,CLR,,0.00,WeatherDisplay:10.37,2013-10-26 07:36:00,
2013-10-26 02:38:00,48.7,28.9,28.56,South,180,6.9,6.9,46,0.00,CLR,,0.00,WeatherDisplay:10.37,2013-10-26 07:38:00,
2013-10-26 02:40:00,48.7,28.9,28.56,SW,225,11.5,11.5,46,0.00,CLR,,0.00,WeatherDisplay:10.37,2013-10-26 07:40:00,
2013-10-26 02:41:00,48.7,28.9,28.56,West,270,5.8,5.8,46,0.00,CLR,,0.00,WeatherDisplay:10.37,2013-10-26 07:41:00,
2013-10-26 02:42:00,48.7,28.9,28.56,West,270,7.1,7.1,46,0.00,CLR,,0.00,WeatherDisplay:10.37,2013-10-26 07:42:00,
2013-10-26 02:44:00,48.6,28.7,28.56,WSW,248,10.4,10.4,46,0.00,CLR,,0.00,WeatherDisplay:10.37,2013-10-26 07:44:00,
2013-10-26 02:45:00,48.6,28.7,28.56,SW,225,4.6,4.6,46,0.00,CLR,,0.00,WeatherDisplay:10.37,2013-10-26 07:45:00,
2013-10-26 02:46:00,48.6,28.7,28.56,WSW,248,12.7,12.7,46,0.00,CLR,,0.00,WeatherDisplay:10.37,2013-10-26 07:46:00,
2013-10-26 02:47:00,48.6,29.2,28.56,WSW,248,8.5,8.5,47,0.00,CLR,,0.00,WeatherDisplay:10.37,2013-10-26 07:47:00,
2013-10-26 02:50:00,48.2,28.9,28.56,NW,315,5.8,5.8,47,0.00,CLR,,0.00,WeatherDisplay:10.37,2013-10-26 07:50:00,
2013-10-26 02:52:00,48.0,28.7,28.56,West,270,5.8,5.8,47,0.00,CLR,,0.00,WeatherDisplay:10.37,2013-10-26 07:52:00,
2013-10-26 02:55:00,48.0,29.2,28.56,WNW,292,8.1,8.1,48,0.00,CLR,,0.00,WeatherDisplay:10.37,2013-10-26 07:55:00,
2013-10-26 02:56:00,48.0,29.2,28.56,NW,315,8.1,8.1,48,0.00,CLR,,0.00,WeatherDisplay:10.37,2013-10-26 07:56:00,
2013-10-26 02:57:00,48.0,29.2,28.56,WSW,248,8.1,8.1,48,0.00,CLR,,0.00,WeatherDisplay:10.37,2013-10-26 07:57:00,
2013-10-26 03:00:00,48.0,29.2,28.56,SSW,202,12.7,12.7,48,0.00,CLR,,0.00,WeatherDisplay:10.37,2013-10-26 08:00:00,
2013-10-26 03:01:00,48.0,29.2,28.56,WSW,248,10.4,10.4,48,0.00,CLR,,0.00,WeatherDisplay:10.37,2013-10-26 08:01:00,
2013-10-26 03:02:00,48.0,29.2,28.56,South,180,4.6,4.6,48,0.00,CLR,,0.00,WeatherDisplay:10.37,2013-10-26 08:02:00,
2013-10-26 03:03:00,48.0,29.2,28.56,SSW,202,6.9,6.9,48,0.00,CLR,,0.00,WeatherDisplay:10.37,2013-10-26 08:03:00,
2013-10-26 03:05:00,47.8,29.1,28.56,WNW,292,9.2,9.2,48,0.00,CLR,,0.00,WeatherDisplay:10.37,2013-10-26 08:05:00,
2013-10-26 03:06:00,47.8,29.1,28.56,WNW,292,9.4,9.4,48,0.00,CLR,,0.00,WeatherDisplay:10.37,2013-10-26 08:06:00,
2013-10-26 03:07:00,47.8,29.1,28.56,WNW,292,9.2,9.2,48,0.00,CLR,,0.00,WeatherDisplay:10.37,2013-10-26 08:07:00,
2013-10-26 03:08:00,47.8,29.1,28.56,West,270,13.2,13.2,48,0.00,CLR,,0.00,WeatherDisplay:10.37,2013-10-26 08:08:00,
2013-10-26 03:10:00,47.7,28.9,28.56,West,270,5.9,5.9,48,0.00,CLR,,0.00,WeatherDisplay:10.37,2013-10-26 08:10:00,
2013-10-26 03:11:00,47.7,29.4,28.56,WNW,292,6.2,6.4,49,0.00,CLR,,0.00,WeatherDisplay:10.37,2013-10-26 08:11:00,
2013-10-26 03:12:00,47.8,29.6,28.56,West,270,10.4,10.4,49,0.00,CLR,,0.00,WeatherDisplay:10.37,2013-10-26 08:12:00,
2013-10-26 03:13:00,47.8,29.6,28.56,WSW,248,12.7,12.7,49,0.00,CLR,,0.00,WeatherDisplay:10.37,2013-10-26 08:13:00,
2013-10-26 03:15:00,47.7,29.4,28.56,WSW,248,8.1,8.1,49,0.00,CLR,,0.00,WeatherDisplay:10.37,2013-10-26 08:15:00,
2013-10-26 03:17:00,47.7,29.4,28.56,WNW,292,19.2,19.2,49,0.00,CLR,,0.00,WeatherDisplay:10.37,2013-10-26 08:17:00,
2013-10-26 03:18:00,47.8,29.6,28.56,NW,315,19.6,19.6,49,0.00,CLR,,0.00,WeatherDisplay:10.37,2013-10-26 08:18:00,
2013-10-26 03:21:00,47.7,29.4,28.56,SSE,158,9.2,9.2,49,0.00,CLR,,0.00,WeatherDisplay:10.37,2013-10-26 08:21:00,
2013-10-26 03:22:00,47.7,29.4,28.56,WSW,248,4.6,5.9,49,0.00,CLR,,0.00,WeatherDisplay:10.37,2013-10-26 08:22:00,
2013-10-26 03:23:00,47.7,29.4,28.56,WNW,292,9.2,9.2,49,0.00,CLR,,0.00,WeatherDisplay:10.37,2013-10-26 08:23:00,
2013-10-26 03:24:00,47.5,29.3,28.56,West,270,12.7,12.7,49,0.00,CLR,,0.00,WeatherDisplay:10.37,2013-10-26 08:24:00,
2013-10-26 03:26:00,47.5,29.3,28.56,NW,315,10.2,10.2,49,0.00,CLR,,0.00,WeatherDisplay:10.37,2013-10-26 08:26:00,
2013-10-26 03:28:00,47.5,29.3,28.56,West,270,9.7,9.7,49,0.00,CLR,,0.00,WeatherDisplay:10.37,2013-10-26 08:28:00,
2013-10-26 03:29:00,47.5,29.3,28.56,WSW,248,9.2,9.2,49,0.00,CLR,,0.00,WeatherDisplay:10.37,2013-10-26 08:29:00,
2013-10-26 03:31:00,47.5,29.3,28.56,WSW,248,4.6,4.6,49,0.00,CLR,,0.00,WeatherDisplay:10.37,2013-10-26 08:31:00,
2013-10-26 03:33:00,47.3,29.1,28.56,West,270,6.9,6.9,49,0.00,CLR,,0.00,WeatherDisplay:10.37,2013-10-26 08:33:00,
2013-10-26 03:34:00,47.3,29.1,28.56,WSW,248,4.6,4.6,49,0.00,CLR,,0.00,WeatherDisplay:10.37,2013-10-26 08:34:00,
2013-10-26 03:35:00,47.1,28.9,28.56,ENE,68,3.5,3.5,49,0.00,CLR,,0.00,WeatherDisplay:10.37,2013-10-26 08:35:00,
2013-10-26 03:36:00,47.1,29.4,28.56,WNW,292,5.8,6.4,50,0.00,CLR,,0.00,WeatherDisplay:10.37,2013-10-26 08:36:00,
2013-10-26 03:38:00,47.1,29.4,28.56,NW,315,5.8,5.8,50,0.00,CLR,,0.00,WeatherDisplay:10.37,2013-10-26 08:38:00,
2013-10-26 03:39:00,46.9,28.8,28.56,WSW,248,5.8,5.8,49,0.00,CLR,,0.00,WeatherDisplay:10.37,2013-10-26 08:39:00,
2013-10-26 03:40:00,46.9,29.2,28.56,WNW,292,5.8,5.8,50,0.00,CLR,,0.00,WeatherDisplay:10.37,2013-10-26 08:40:00,
2013-10-26 03:41:00,46.9,29.2,28.56,WSW,248,8.1,8.1,50,0.00,CLR,,0.00,WeatherDisplay:10.37,2013-10-26 08:41:00,
2013-10-26 03:43:00,46.9,29.2,28.56,WSW,248,13.8,13.8,50,0.00,CLR,,0.00,WeatherDisplay:10.37,2013-10-26 08:43:00,
2013-10-26 03:44:00,46.9,29.2,28.56,WSW,248,13.8,13.8,50,0.00,CLR,,0.00,WeatherDisplay:10.37,2013-10-26 08:44:00,
2013-10-26 03:45:00,46.9,29.2,28.56,WSW,248,4.6,4.9,50,0.00,CLR,,0.00,WeatherDisplay:10.37,2013-10-26 08:45:00,
2013-10-26 03:46:00,46.9,29.2,28.56,WNW,292,10.4,10.4,50,0.00,CLR,,0.00,WeatherDisplay:10.37,2013-10-26 08:46:00,
2013-10-26 03:48:00,46.9,29.7,28.56,SW,225,10.5,10.5,51,0.00,CLR,,0.00,WeatherDisplay:10.37,2013-10-26 08:48:00,
2013-10-26 03:49:00,46.9,29.2,28.56,SSW,202,10.4,10.4,50,0.00,CLR,,0.00,WeatherDisplay:10.37,2013-10-26 08:49:00,
2013-10-26 03:50:00,46.9,29.2,28.56,WSW,254,6.0,10.0,50,0.00,CLR,,0.00,WeatherDisplay:10.37,2013-10-26 08:50:00,
2013-10-26 03:51:00,46.9,29.7,28.56,SSW,202,6.9,6.9,51,0.00,CLR,,0.00,WeatherDisplay:10.37,2013-10-26 08:51:00,
2013-10-26 03:53:00,46.8,29.6,28.56,South,180,3.8,3.8,51,0.00,CLR,,0.00,WeatherDisplay:10.37,2013-10-26 08:53:00,
2013-10-26 03:54:00,46.6,29.4,28.53,NW,315,9.2,9.2,51,0.00,CLR,,0.00,WeatherDisplay:10.37,2013-10-26 08:54:00,
2013-10-26 03:55:00,46.7,29.5,28.55,West,265,3.0,9.0,51,0.00,CLR,,0.00,WeatherDisplay:10.37,2013-10-26 08:55:00,
2013-10-26 03:56:00,46.6,29.4,28.53,West,270,8.1,8.1,51,0.00,CLR,,0.00,WeatherDisplay:10.37,2013-10-26 08:56:00,
2013-10-26 03:59:00,46.4,29.2,28.53,SW,225,4.3,4.3,51,0.00,CLR,,0.00,WeatherDisplay:10.37,2013-10-26 08:59:00,
2013-10-26 04:00:00,46.4,29.2,28.53,West,270,4.6,4.6,51,0.00,CLR,,0.00,WeatherDisplay:10.37,2013-10-26 09:00:00,
2013-10-26 04:01:00,46.2,29.5,28.53,West,270,3.5,3.5,52,0.00,CLR,,0.00,WeatherDisplay:10.37,2013-10-26 09:01:00,
2013-10-26 04:02:00,46.2,29.1,28.53,WSW,248,3.6,3.6,51,0.00,CLR,,0.00,WeatherDisplay:10.37,2013-10-26 09:02:00,
2013-10-26 04:04:00,46.2,29.5,28.53,West,270,6.2,6.2,52,0.00,CLR,,0.00,WeatherDisplay:10.37,2013-10-26 09:04:00,
2013-10-26 04:05:00,46.2,29.5,28.53,SSW,202,6.9,6.9,52,0.00,CLR,,0.00,WeatherDisplay:10.37,2013-10-26 09:05:00,
2013-10-26 04:06:00,46.2,29.5,28.53,NNW,338,6.9,6.9,52,0.00,CLR,,0.00,WeatherDisplay:10.37,2013-10-26 09:06:00,
2013-10-26 04:07:00,46.0,29.4,28.53,WNW,292,4.6,4.6,52,0.00,CLR,,0.00,WeatherDisplay:10.37,2013-10-26 09:07:00,
2013-10-26 04:09:00,46.0,29.8,28.53,WSW,248,8.1,8.1,53,0.00,CLR,,0.00,WeatherDisplay:10.37,2013-10-26 09:09:00,
2013-10-26 04:10:00,45.9,29.7,28.53,WSW,248,8.1,8.1,53,0.00,CLR,,0.00,WeatherDisplay:10.37,2013-10-26 09:10:00,
2013-10-26 04:11:00,45.9,29.7,28.53,West,270,5.8,5.8,53,0.00,CLR,,0.00,WeatherDisplay:10.37,2013-10-26 09:11:00,
2013-10-26 04:12:00,45.9,29.7,28.53,NW,315,5.8,5.8,53,0.00,CLR,,0.00,WeatherDisplay:10.37,2013-10-26 09:12:00,
2013-10-26 04:14:00,45.7,29.5,28.53,WNW,292,8.7,8.7,53,0.00,CLR,,0.00,WeatherDisplay:10.37,2013-10-26 09:14:00,
2013-10-26 04:15:00,45.7,30.0,28.53,West,270,9.2,9.2,54,0.00,CLR,,0.00,WeatherDisplay:10.37,2013-10-26 09:15:00,
2013-10-26 04:16:00,45.7,30.0,28.53,West,270,9.2,9.2,54,0.00,CLR,,0.00,WeatherDisplay:10.37,2013-10-26 09:16:00,
2013-10-26 04:17:00,45.7,30.0,28.53,NW,315,9.2,9.2,54,0.00,CLR,,0.00,WeatherDisplay:10.37,2013-10-26 09:17:00,
2013-10-26 04:19:00,45.7,30.0,28.53,SSW,202,5.4,5.4,54,0.00,CLR,,0.00,WeatherDisplay:10.37,2013-10-26 09:19:00,
2013-10-26 04:20:00,45.7,30.0,28.53,WNW,292,5.8,6.7,54,0.00,CLR,,0.00,WeatherDisplay:10.37,2013-10-26 09:20:00,
2013-10-26 04:21:00,45.7,30.0,28.53,WNW,292,9.2,9.2,54,0.00,CLR,,0.00,WeatherDisplay:10.37,2013-10-26 09:21:00,
2013-10-26 04:22:00,45.7,30.0,28.53,WNW,292,5.8,5.8,54,0.00,CLR,,0.00,WeatherDisplay:10.37,2013-10-26 09:22:00,
2013-10-26 04:24:00,45.5,29.8,28.53,WSW,248,9.2,9.2,54,0.00,CLR,,0.00,WeatherDisplay:10.37,2013-10-26 09:24:00,
2013-10-26 04:25:00,45.3,29.6,28.53,NW,315,4.3,4.3,54,0.00,CLR,,0.00,WeatherDisplay:10.37,2013-10-26 09:25:00,
2013-10-26 04:26:00,45.3,29.6,28.53,WNW,292,5.8,5.8,54,0.00,CLR,,0.00,WeatherDisplay:10.37,2013-10-26 09:26:00,
2013-10-26 04:27:00,45.3,30.1,28.53,NW,315,2.3,2.9,55,0.00,CLR,,0.00,WeatherDisplay:10.37,2013-10-26 09:27:00,
2013-10-26 04:28:00,45.1,29.5,28.53,NW,315,4.6,4.6,54,0.00,CLR,,0.00,WeatherDisplay:10.37,2013-10-26 09:28:00,
2013-10-26 04:30:00,45.0,29.3,28.53,WNW,292,5.6,5.6,54,0.00,CLR,,0.00,WeatherDisplay:10.37,2013-10-26 09:30:00,
2013-10-26 04:31:00,45.0,29.8,28.53,WSW,248,5.8,5.8,55,0.00,CLR,,0.00,WeatherDisplay:10.37,2013-10-26 09:31:00,
2013-10-26 04:32:00,44.8,29.6,28.53,WNW,292,4.6,4.6,55,0.00,CLR,,0.00,WeatherDisplay:10.37,2013-10-26 09:32:00,
2013-10-26 04:33:00,44.8,29.6,28.53,WNW,292,5.8,5.8,55,0.00,CLR,,0.00,WeatherDisplay:10.37,2013-10-26 09:33:00,
2013-10-26 04:35:00,44.8,30.0,28.53,WSW,248,8.1,8.1,56,0.00,CLR,,0.00,WeatherDisplay:10.37,2013-10-26 09:35:00,
2013-10-26 04:36:00,44.8,30.0,28.53,WSW,248,5.8,5.8,56,0.00,CLR,,0.00,WeatherDisplay:10.37,2013-10-26 09:36:00,
2013-10-26 04:38:00,44.6,29.4,28.53,WNW,292,3.8,3.8,55,0.00,CLR,,0.00,WeatherDisplay:10.37,2013-10-26 09:38:00,
2013-10-26 04:41:00,44.2,30.0,28.56,WSW,248,5.8,5.8,57,0.00,CLR,,0.00,WeatherDisplay:10.37,2013-10-26 09:41:00,
2013-10-26 04:42:00,44.2,30.0,28.56,WSW,248,3.6,3.6,57,0.00,CLR,,0.00,WeatherDisplay:10.37,2013-10-26 09:42:00,
2013-10-26 04:43:00,44.2,30.0,28.56,WSW,248,4.6,4.6,57,0.00,CLR,,0.00,WeatherDisplay:10.37,2013-10-26 09:43:00,
2013-10-26 04:46:00,44.2,30.4,28.56,WNW,292,6.9,6.9,58,0.00,CLR,,0.00,WeatherDisplay:10.37,2013-10-26 09:46:00,
2013-10-26 04:47:00,44.2,30.4,28.56,WSW,248,5.8,5.8,58,0.00,CLR,,0.00,WeatherDisplay:10.37,2013-10-26 09:47:00,
2013-10-26 04:48:00,44.2,30.4,28.56,WNW,292,5.9,5.9,58,0.00,CLR,,0.00,WeatherDisplay:10.37,2013-10-26 09:48:00,
2013-10-26 04:49:00,44.2,30.4,28.56,WSW,248,6.4,6.4,58,0.00,CLR,,0.00,WeatherDisplay:10.37,2013-10-26 09:49:00,
2013-10-26 04:51:00,44.2,30.8,28.56,West,270,5.8,5.8,59,0.00,CLR,,0.00,WeatherDisplay:10.37,2013-10-26 09:51:00,
2013-10-26 04:52:00,44.2,30.4,28.56,SW,225,4.6,4.6,58,0.00,CLR,,0.00,WeatherDisplay:10.37,2013-10-26 09:52:00,
2013-10-26 04:53:00,44.1,30.2,28.56,NW,315,3.5,3.5,58,0.00,CLR,,0.00,WeatherDisplay:10.37,2013-10-26 09:53:00,
2013-10-26 04:54:00,44.1,30.2,28.56,WNW,292,2.3,2.3,58,0.00,CLR,,0.00,WeatherDisplay:10.37,2013-10-26 09:54:00,
2013-10-26 04:56:00,44.1,30.6,28.53,West,270,5.8,5.8,59,0.00,CLR,,0.00,WeatherDisplay:10.37,2013-10-26 09:56:00,
2013-10-26 04:57:00,43.9,30.5,28.53,NW,315,4.6,4.6,59,0.00,CLR,,0.00,WeatherDisplay:10.37,2013-10-26 09:57:00,
2013-10-26 04:58:00,44.1,31.1,28.53,WSW,248,9.2,9.2,60,0.00,CLR,,0.00,WeatherDisplay:10.37,2013-10-26 09:58:00,
2013-10-26 04:59:00,43.9,30.9,28.53,WNW,292,5.8,5.8,60,0.00,CLR,,0.00,WeatherDisplay:10.37,2013-10-26 09:59:00,
2013-10-26 05:00:00,43.9,30.9,28.53,WNW,292,7.4,7.4,60,0.00,CLR,,0.00,WeatherDisplay:10.37,2013-10-26 10:00:00,
2013-10-26 05:01:00,43.9,30.9,28.53,NNW,338,9.2,9.2,60,0.00,CLR,,0.00,WeatherDisplay:10.37,2013-10-26 10:01:00,
2013-10-26 05:02:00,43.7,30.3,28.53,NNW,338,4.6,4.6,59,0.00,CLR,,0.00,WeatherDisplay:10.37,2013-10-26 10:02:00,
2013-10-26 05:04:00,43.7,30.3,28.53,NNW,338,2.3,2.3,59,0.00,CLR,,0.00,WeatherDisplay:10.37,2013-10-26 10:04:00,
2013-10-26 05:05:00,43.5,30.1,28.53,SW,225,3.5,3.5,59,0.00,CLR,,0.00,WeatherDisplay:10.37,2013-10-26 10:05:00,
2013-10-26 05:07:00,43.5,30.1,28.53,NNW,338,3.5,3.5,59,0.00,CLR,,0.00,WeatherDisplay:10.37,2013-10-26 10:07:00,
2013-10-26 05:09:00,43.3,30.4,28.53,WSW,248,5.8,5.8,60,0.00,CLR,,0.00,WeatherDisplay:10.37,2013-10-26 10:09:00,
2013-10-26 05:10:00,43.3,30.4,28.56,West,270,3.5,3.5,60,0.00,CLR,,0.00,WeatherDisplay:10.37,2013-10-26 10:10:00,
2013-10-26 05:12:00,43.3,31.2,28.56,NW,315,8.1,8.1,62,0.00,CLR,,0.00,WeatherDisplay:10.37,2013-10-26 10:12:00,
2013-10-26 05:14:00,43.2,30.6,28.56,NW,315,3.3,3.3,61,0.00,CLR,,0.00,WeatherDisplay:10.37,2013-10-26 10:14:00,
2013-10-26 05:15:00,43.0,30.4,28.56,NW,315,3.5,3.5,61,0.00,CLR,,0.00,WeatherDisplay:10.37,2013-10-26 10:15:00,
2013-10-26 05:16:00,43.0,30.4,28.56,NW,315,3.8,3.8,61,0.00,CLR,,0.00,WeatherDisplay:10.37,2013-10-26 10:16:00,
2013-10-26 05:17:00,43.2,31.0,28.56,WSW,248,5.8,5.8,62,0.00,CLR,,0.00,WeatherDisplay:10.37,2013-10-26 10:17:00,
2013-10-26 05:18:00,43.2,31.0,28.56,NW,315,4.6,4.6,62,0.00,CLR,,0.00,WeatherDisplay:10.37,2013-10-26 10:18:00,
2013-10-26 05:19:00,43.2,31.0,28.56,WNW,292,4.6,4.6,62,0.00,CLR,,0.00,WeatherDisplay:10.37,2013-10-26 10:19:00,
2013-10-26 05:20:00,42.8,30.3,28.56,SW,225,4.3,4.3,61,0.00,CLR,,0.00,WeatherDisplay:10.37,2013-10-26 10:20:00,
2013-10-26 05:21:00,42.8,30.3,28.56,NW,315,4.6,4.6,61,0.00,CLR,,0.00,WeatherDisplay:10.37,2013-10-26 10:21:00,
2013-10-26 05:23:00,42.6,30.5,28.56,WSW,248,2.3,2.3,62,0.00,CLR,,0.00,WeatherDisplay:10.37,2013-10-26 10:23:00,
2013-10-26 05:24:00,42.6,30.1,28.56,WNW,292,1.2,0.0,61,0.00,CLR,,0.00,WeatherDisplay:10.37,2013-10-26 10:24:00,
2013-10-26 05:26:00,42.4,29.9,28.56,NW,315,1.2,0.0,61,0.00,CLR,,0.00,WeatherDisplay:10.37,2013-10-26 10:26:00,
2013-10-26 05:27:00,42.3,29.8,28.56,NNW,338,2.3,2.3,61,0.00,CLR,,0.00,WeatherDisplay:10.37,2013-10-26 10:27:00,
2013-10-26 05:28:00,42.3,30.2,28.56,West,270,4.0,4.0,62,0.00,CLR,,0.00,WeatherDisplay:10.37,2013-10-26 10:28:00,
2013-10-26 05:29:00,42.3,30.6,28.56,WNW,292,4.6,4.6,63,0.00,CLR,,0.00,WeatherDisplay:10.37,2013-10-26 10:29:00,
2013-10-26 05:31:00,42.3,30.6,28.56,WNW,292,3.5,3.5,63,0.00,CLR,,0.00,WeatherDisplay:10.37,2013-10-26 10:31:00,
2013-10-26 05:32:00,42.3,30.6,28.56,WNW,292,4.6,4.6,63,0.00,CLR,,0.00,WeatherDisplay:10.37,2013-10-26 10:32:00,
2013-10-26 05:33:00,42.1,30.4,28.56,WSW,248,3.5,3.5,63,0.00,CLR,,0.00,WeatherDisplay:10.37,2013-10-26 10:33:00,
2013-10-26 05:34:00,42.1,30.8,28.56,WSW,248,3.5,3.5,64,0.00,CLR,,0.00,WeatherDisplay:10.37,2013-10-26 10:34:00,
2013-10-26 05:36:00,42.1,31.2,28.56,WNW,292,2.3,2.3,65,0.00,CLR,,0.00,WeatherDisplay:10.37,2013-10-26 10:36:00,
2013-10-26 05:37:00,42.1,31.2,28.56,NW,315,3.1,3.1,65,0.00,CLR,,0.00,WeatherDisplay:10.37,2013-10-26 10:37:00,
2013-10-26 05:38:00,42.1,31.5,28.56,WNW,292,5.8,5.8,66,0.00,CLR,,0.00,WeatherDisplay:10.37,2013-10-26 10:38:00,
2013-10-26 05:39:00,42.1,31.5,28.56,West,270,5.8,5.8,66,0.00,CLR,,0.00,WeatherDisplay:10.37,2013-10-26 10:39:00,
2013-10-26 05:41:00,42.1,31.5,28.53,NW,315,4.6,4.6,66,0.00,CLR,,0.00,WeatherDisplay:10.37,2013-10-26 10:41:00,
2013-10-26 05:42:00,42.1,31.5,28.53,NW,315,3.5,3.5,66,0.00,CLR,,0.00,WeatherDisplay:10.37,2013-10-26 10:42:00,
2013-10-26 05:44:00,42.3,32.4,28.53,West,270,5.8,5.8,68,0.00,CLR,,0.00,WeatherDisplay:10.37,2013-10-26 10:44:00,
2013-10-26 05:45:00,42.3,32.4,28.53,WSW,248,4.6,4.6,68,0.00,CLR,,0.00,WeatherDisplay:10.37,2013-10-26 10:45:00,
2013-10-26 05:47:00,42.3,32.4,28.53,West,270,3.5,3.5,68,0.00,CLR,,0.00,WeatherDisplay:10.37,2013-10-26 10:47:00,
2013-10-26 05:48:00,42.3,32.1,28.53,WNW,292,4.7,4.7,67,0.00,CLR,,0.00,WeatherDisplay:10.37,2013-10-26 10:48:00,
2013-10-26 05:49:00,42.3,32.4,28.53,West,270,6.9,6.9,68,0.00,CLR,,0.00,WeatherDisplay:10.37,2013-10-26 10:49:00,
2013-10-26 05:50:00,42.3,32.4,28.53,NNW,338,6.2,6.2,68,0.00,CLR,,0.00,WeatherDisplay:10.37,2013-10-26 10:50:00,
2013-10-26 05:52:00,42.4,33.0,28.53,WNW,292,6.7,6.7,69,0.00,CLR,,0.00,WeatherDisplay:10.37,2013-10-26 10:52:00,
2013-10-26 05:53:00,42.4,33.3,28.53,WNW,292,6.9,6.9,70,0.00,CLR,,0.00,WeatherDisplay:10.37,2013-10-26 10:53:00,
2013-10-26 05:54:00,42.6,33.5,28.53,WNW,292,3.5,3.5,70,0.00,CLR,,0.00,WeatherDisplay:10.37,2013-10-26 10:54:00,
2013-10-26 05:55:00,42.6,33.5,28.56,WNW,292,3.5,3.5,70,0.00,CLR,,0.00,WeatherDisplay:10.37,2013-10-26 10:55:00,
2013-10-26 05:57:00,42.4,33.0,28.56,West,270,5.8,5.8,69,0.00,CLR,,0.00,WeatherDisplay:10.37,2013-10-26 10:57:00,
2013-10-26 05:58:00,42.4,33.0,28.56,WSW,248,5.8,5.8,69,0.00,CLR,,0.00,WeatherDisplay:10.37,2013-10-26 10:58:00,
2013-10-26 05:59:00,42.6,33.5,28.56,NW,315,4.7,4.7,70,0.00,CLR,,0.00,WeatherDisplay:10.37,2013-10-26 10:59:00,
2013-10-26 06:00:00,42.6,33.5,28.56,WNW,292,4.7,4.7,70,0.00,CLR,,0.00,WeatherDisplay:10.37,2013-10-26 11:00:00,
2013-10-26 06:03:00,42.4,33.0,28.56,WNW,292,3.5,3.5,69,0.00,CLR,,0.00,WeatherDisplay:10.37,2013-10-26 11:03:00,
2013-10-26 06:04:00,42.4,33.0,28.56,West,270,3.5,3.5,69,0.00,CLR,,0.00,WeatherDisplay:10.37,2013-10-26 11:04:00,
2013-10-26 06:05:00,42.6,33.5,28.56,WNW,292,4.3,4.3,70,0.00,CLR,,0.00,WeatherDisplay:10.37,2013-10-26 11:05:00,
2013-10-26 06:08:00,42.6,33.5,28.56,West,270,6.9,6.9,70,0.00,CLR,,0.00,WeatherDisplay:10.37,2013-10-26 11:08:00,
2013-10-26 06:09:00,42.8,34.0,28.56,NW,315,6.9,6.9,71,0.00,CLR,,0.00,WeatherDisplay:10.37,2013-10-26 11:09:00,
2013-10-26 06:10:00,42.8,34.0,28.56,WNW,292,6.9,6.9,71,0.00,CLR,,0.00,WeatherDisplay:10.37,2013-10-26 11:10:00,
2013-10-26 06:11:00,42.8,34.0,28.56,WNW,292,5.8,5.8,71,0.00,CLR,,0.00,WeatherDisplay:10.37,2013-10-26 11:11:00,
2013-10-26 06:13:00,42.8,34.0,28.56,NW,315,5.8,5.8,71,0.00,CLR,,0.00,WeatherDisplay:10.37,2013-10-26 11:13:00,
2013-10-26 06:15:00,42.8,34.0,28.56,NW,315,8.1,8.1,71,0.00,CLR,,0.00,WeatherDisplay:10.37,2013-10-26 11:15:00,
2013-10-26 06:16:00,43.0,34.2,28.56,West,270,8.1,8.1,71,0.00,CLR,,0.00,WeatherDisplay:10.37,2013-10-26 11:16:00,
2013-10-26 06:18:00,43.0,34.2,28.56,West,270,5.8,5.8,71,0.00,CLR,,0.00,WeatherDisplay:10.37,2013-10-26 11:18:00,
2013-10-26 06:20:00,43.0,34.2,28.56,NW,315,5.9,5.9,71,0.00,CLR,,0.00,WeatherDisplay:10.37,2013-10-26 11:20:00,
2013-10-26 06:21:00,43.0,34.2,28.56,NW,315,5.8,5.8,71,0.00,CLR,,0.00,WeatherDisplay:10.37,2013-10-26 11:21:00,
2013-10-26 06:24:00,43.0,34.2,28.56,NW,315,3.5,3.5,71,0.00,CLR,,0.00,WeatherDisplay:10.37,2013-10-26 11:24:00,
2013-10-26 06:25:00,43.0,34.2,28.58,West,270,5.8,5.8,71,0.00,CLR,,0.00,WeatherDisplay:10.37,2013-10-26 11:25:00,
2013-10-26 06:26:00,43.0,34.2,28.58,WNW,292,5.8,5.8,71,0.00,CLR,,0.00,WeatherDisplay:10.37,2013-10-26 11:26:00,
2013-10-26 06:29:00,43.0,34.6,28.58,WNW,292,6.9,6.9,72,0.00,CLR,,0.00,WeatherDisplay:10.37,2013-10-26 11:29:00,
2013-10-26 06:30:00,43.0,34.6,28.58,NW,315,6.9,6.9,72,0.00,CLR,,0.00,WeatherDisplay:10.37,2013-10-26 11:30:00,
2013-10-26 06:31:00,43.0,34.6,28.58,NW,315,5.8,5.8,72,0.00,CLR,,0.00,WeatherDisplay:10.37,2013-10-26 11:31:00,
2013-10-26 06:32:00,43.0,34.6,28.58,NW,315,5.8,5.8,72,0.00,CLR,,0.00,WeatherDisplay:10.37,2013-10-26 11:32:00,
2013-10-26 06:35:00,43.2,34.7,28.58,West,270,6.2,6.2,72,0.00,CLR,,0.00,WeatherDisplay:10.37,2013-10-26 11:35:00,
2013-10-26 06:36:00,43.2,34.7,28.58,West,270,10.4,10.4,72,0.00,CLR,,0.00,WeatherDisplay:10.37,2013-10-26 11:36:00,
2013-10-26 06:37:00,43.2,34.7,28.58,NW,315,4.6,4.6,72,0.00,CLR,,0.00,WeatherDisplay:10.37,2013-10-26 11:37:00,
2013-10-26 06:40:00,43.2,34.7,28.58,NW,315,4.6,4.6,72,0.00,CLR,,0.00,WeatherDisplay:10.37,2013-10-26 11:40:00,
2013-10-26 06:41:00,43.0,34.6,28.58,WNW,292,5.9,5.9,72,0.00,CLR,,0.00,WeatherDisplay:10.37,2013-10-26 11:41:00,
2013-10-26 06:42:00,43.0,34.6,28.58,NW,315,5.8,5.8,72,0.00,CLR,,0.00,WeatherDisplay:10.37,2013-10-26 11:42:00,
2013-10-26 06:45:00,43.0,34.6,28.58,NW,315,8.1,8.1,72,0.00,CLR,,0.00,WeatherDisplay:10.37,2013-10-26 11:45:00,
2013-10-26 06:46:00,43.0,34.6,28.58,WNW,292,6.0,6.0,72,0.00,CLR,,0.00,WeatherDisplay:10.37,2013-10-26 11:46:00,
2013-10-26 06:47:00,43.0,34.6,28.58,WNW,292,6.2,6.2,72,0.00,CLR,,0.00,WeatherDisplay:10.37,2013-10-26 11:47:00,
2013-10-26 06:48:00,43.0,34.6,28.58,WNW,292,5.8,5.8,72,0.00,CLR,,0.00,WeatherDisplay:10.37,2013-10-26 11:48:00,
2013-10-26 06:50:00,43.0,34.6,28.58,WNW,292,6.2,6.2,72,0.00,CLR,,0.00,WeatherDisplay:10.37,2013-10-26 11:50:00,
2013-10-26 06:51:00,43.0,34.6,28.58,West,270,8.1,8.1,72,0.00,CLR,,0.00,WeatherDisplay:10.37,2013-10-26 11:51:00,
2013-10-26 06:52:00,43.0,34.6,28.58,WNW,292,7.8,7.8,72,0.00,CLR,,0.00,WeatherDisplay:10.37,2013-10-26 11:52:00,
2013-10-26 06:53:00,43.2,34.7,28.58,WNW,292,9.2,9.2,72,0.00,CLR,,0.00,WeatherDisplay:10.37,2013-10-26 11:53:00,
2013-10-26 06:56:00,43.2,34.4,28.61,West,270,5.9,5.9,71,0.00,CLR,,0.00,WeatherDisplay:10.37,2013-10-26 11:56:00,
2013-10-26 06:57:00,43.2,34.4,28.61,WNW,292,5.8,5.8,71,0.00,CLR,,0.00,WeatherDisplay:10.37,2013-10-26 11:57:00,
2013-10-26 06:58:00,43.2,34.4,28.61,WNW,292,5.9,5.9,71,0.00,CLR,,0.00,WeatherDisplay:10.37,2013-10-26 11:58:00,
2013-10-26 06:59:00,43.2,34.4,28.61,NW,315,9.8,9.8,71,0.00,CLR,,0.00,WeatherDisplay:10.37,2013-10-26 11:59:00,
2013-10-26 07:01:00,43.2,34.4,28.61,WNW,292,6.9,6.9,71,0.00,CLR,,0.00,WeatherDisplay:10.37,2013-10-26 12:01:00,
2013-10-26 07:02:00,43.3,34.6,28.61,NW,315,10.4,10.4,71,0.00,CLR,,0.00,WeatherDisplay:10.37,2013-10-26 12:02:00,
2013-10-26 07:03:00,43.3,34.6,28.61,WNW,292,9.2,9.2,71,0.00,CLR,,0.00,WeatherDisplay:10.37,2013-10-26 12:03:00,
2013-10-26 07:04:00,43.5,34.7,28.61,NW,315,11.5,11.5,71,0.00,CLR,,0.00,WeatherDisplay:10.37,2013-10-26 12:04:00,
2013-10-26 07:06:00,43.5,34.7,28.61,NW,315,8.1,8.1,71,0.00,CLR,,0.00,WeatherDisplay:10.37,2013-10-26 12:06:00,
2013-10-26 07:07:00,43.5,34.4,28.61,West,270,4.9,4.9,70,0.00,CLR,,0.00,WeatherDisplay:10.37,2013-10-26 12:07:00,
2013-10-26 07:08:00,43.5,34.4,28.61,WNW,292,6.9,6.9,70,0.00,CLR,,0.00,WeatherDisplay:10.37,2013-10-26 12:08:00,
2013-10-26 07:09:00,43.5,34.4,28.61,NW,315,8.1,8.1,70,0.00,CLR,,0.00,WeatherDisplay:10.37,2013-10-26 12:09:00,
2013-10-26 07:12:00,43.9,34.4,28.61,WSW,248,10.4,10.4,69,0.00,CLR,,0.00,WeatherDisplay:10.37,2013-10-26 12:12:00,
2013-10-26 07:13:00,44.1,34.2,28.61,NW,315,12.7,12.7,68,0.00,CLR,,0.00,WeatherDisplay:10.37,2013-10-26 12:13:00,
2013-10-26 07:14:00,44.1,34.2,28.61,WNW,292,5.8,5.8,68,0.00,CLR,,0.00,WeatherDisplay:10.37,2013-10-26 12:14:00,
2013-10-26 07:15:00,44.1,34.2,28.61,NW,315,5.9,5.9,68,0.00,CLR,,0.00,WeatherDisplay:10.37,2013-10-26 12:15:00,
2013-10-26 07:17:00,44.1,33.8,28.61,NNE,22,9.2,9.2,67,0.00,CLR,,0.00,WeatherDisplay:10.37,2013-10-26 12:17:00,
2013-10-26 07:18:00,44.2,34.0,28.61,WNW,292,8.1,8.1,67,0.00,CLR,,0.00,WeatherDisplay:10.37,2013-10-26 12:18:00,
2013-10-26 07:19:00,44.2,34.0,28.61,NW,315,8.7,8.7,67,0.00,CLR,,0.00,WeatherDisplay:10.37,2013-10-26 12:19:00,
2013-10-26 07:20:00,44.2,33.6,28.61,NW,315,9.2,9.4,66,0.00,CLR,,0.00,WeatherDisplay:10.37,2013-10-26 12:20:00,
2013-10-26 07:22:00,44.2,33.6,28.61,NW,315,6.9,6.9,66,0.00,CLR,,0.00,WeatherDisplay:10.37,2013-10-26 12:22:00,
2013-10-26 07:23:00,44.2,33.6,28.61,NW,315,8.1,8.1,66,0.00,CLR,,0.00,WeatherDisplay:10.37,2013-10-26 12:23:00,
2013-10-26 07:24:00,44.2,33.6,28.61,NW,315,8.1,8.1,66,0.00,CLR,,0.00,WeatherDisplay:10.37,2013-10-26 12:24:00,
2013-10-26 07:26:00,44.2,33.2,28.61,NNW,338,5.8,6.0,65,0.00,CLR,,0.00,WeatherDisplay:10.37,2013-10-26 12:26:00,
2013-10-26 07:27:00,44.1,33.0,28.61,NNW,338,3.5,3.5,65,0.00,CLR,,0.00,WeatherDisplay:10.37,2013-10-26 12:27:00,
2013-10-26 07:28:00,43.9,32.9,28.61,WNW,292,8.1,8.1,65,0.00,CLR,,0.00,WeatherDisplay:10.37,2013-10-26 12:28:00,
2013-10-26 07:29:00,44.1,33.0,28.61,NW,315,8.1,8.1,65,0.00,CLR,,0.00,WeatherDisplay:10.37,2013-10-26 12:29:00,
2013-10-26 07:31:00,44.1,33.0,28.61,NW,315,5.8,5.8,65,0.00,CLR,,0.00,WeatherDisplay:10.37,2013-10-26 12:31:00,
2013-10-26 07:32:00,43.9,32.9,28.61,NW,315,6.9,6.9,65,0.00,CLR,,0.00,WeatherDisplay:10.37,2013-10-26 12:32:00,
2013-10-26 07:33:00,43.9,32.9,28.61,NW,315,8.1,8.1,65,0.00,CLR,,0.00,WeatherDisplay:10.37,2013-10-26 12:33:00,
2013-10-26 07:34:00,44.1,33.0,28.61,WNW,292,9.8,9.8,65,0.00,CLR,,0.00,WeatherDisplay:10.37,2013-10-26 12:34:00,
2013-10-26 07:35:00,44.1,33.0,28.61,NNW,338,10.4,10.4,65,0.00,CLR,,0.00,WeatherDisplay:10.37,2013-10-26 12:35:00,
2013-10-26 07:36:00,44.1,32.7,28.61,NNE,22,10.4,10.4,64,0.00,CLR,,0.00,WeatherDisplay:10.37,2013-10-26 12:36:00,
2013-10-26 07:38:00,44.1,32.7,28.61,WNW,292,8.1,8.1,64,0.00,CLR,,0.00,WeatherDisplay:10.37,2013-10-26 12:38:00,
2013-10-26 07:39:00,44.2,32.4,28.61,West,270,17.3,17.3,63,0.00,CLR,,0.00,WeatherDisplay:10.37,2013-10-26 12:39:00,
2013-10-26 07:40:00,44.2,32.4,28.61,WNW,292,10.4,10.4,63,0.00,CLR,,0.00,WeatherDisplay:10.37,2013-10-26 12:40:00,
2013-10-26 07:41:00,44.1,32.3,28.61,NW,315,9.2,9.2,63,0.00,CLR,,0.00,WeatherDisplay:10.37,2013-10-26 12:41:00,
2013-10-26 07:43:00,44.2,32.0,28.61,WNW,292,12.7,12.7,62,0.00,CLR,,0.00,WeatherDisplay:10.37,2013-10-26 12:43:00,
2013-10-26 07:44:00,44.2,32.0,28.61,NW,315,6.0,6.9,62,0.00,CLR,,0.00,WeatherDisplay:10.37,2013-10-26 12:44:00,
2013-10-26 07:46:00,44.6,31.6,28.61,NW,315,9.2,9.2,60,0.00,CLR,,0.00,WeatherDisplay:10.37,2013-10-26 12:46:00,
2013-10-26 07:47:00,44.6,31.6,28.61,NW,315,9.2,9.2,60,0.00,CLR,,0.00,WeatherDisplay:10.37,2013-10-26 12:47:00,
2013-10-26 07:48:00,44.6,31.6,28.61,NW,315,6.9,6.9,60,0.00,CLR,,0.00,WeatherDisplay:10.37,2013-10-26 12:48:00,
2013-10-26 07:49:00,44.6,31.6,28.61,NW,315,5.8,5.8,60,0.00,CLR,,0.00,WeatherDisplay:10.37,2013-10-26 12:49:00,
2013-10-26 07:51:00,45.1,32.1,28.61,NW,315,9.2,9.2,60,0.00,CLR,,0.00,WeatherDisplay:10.37,2013-10-26 12:51:00,
2013-10-26 07:52:00,45.1,31.7,28.61,West,270,10.4,10.4,59,0.00,CLR,,0.00,WeatherDisplay:10.37,2013-10-26 12:52:00,
2013-10-26 07:53:00,45.0,31.5,28.61,West,270,10.4,10.4,59,0.00,CLR,,0.00,WeatherDisplay:10.37,2013-10-26 12:53:00,
2013-10-26 07:54:00,45.1,31.7,28.58,NW,315,10.4,10.4,59,0.00,CLR,,0.00,WeatherDisplay:10.37,2013-10-26 12:54:00,
2013-10-26 07:55:00,45.1,31.7,28.58,WNW,292,9.8,9.8,59,0.00,CLR,,0.00,WeatherDisplay:10.37,2013-10-26 12:55:00,
2013-10-26 07:56:00,45.5,32.0,28.58,West,270,9.2,9.2,59,0.00,CLR,,0.00,WeatherDisplay:10.37,2013-10-26 12:56:00,
2013-10-26 07:58:00,45.9,32.3,28.58,NW,315,6.9,6.9,59,0.00,CLR,,0.00,WeatherDisplay:10.37,2013-10-26 12:58:00,
2013-10-26 07:59:00,46.0,32.5,28.58,NW,304,5.0,9.0,59,0.00,CLR,,0.00,WeatherDisplay:10.37,2013-10-26 12:59:00,
2013-10-26 08:00:00,46.0,32.5,28.58,WSW,248,8.1,8.1,59,0.00,CLR,,0.00,WeatherDisplay:10.37,2013-10-26 13:00:00,
2013-10-26 08:01:00,46.2,32.7,28.58,WNW,292,8.1,8.1,59,0.00,CLR,,0.00,WeatherDisplay:10.37,2013-10-26 13:01:00,
2013-10-26 08:03:00,46.2,32.2,28.58,WNW,292,11.5,11.5,58,0.00,CLR,,0.00,WeatherDisplay:10.37,2013-10-26 13:03:00,
2013-10-26 08:04:00,46.4,32.4,28.58,NW,315,10.9,10.9,58,0.00,CLR,,0.00,WeatherDisplay:10.37,2013-10-26 13:04:00,
2013-10-26 08:05:00,46.4,32.4,28.58,West,270,11.5,11.5,58,0.00,CLR,,0.00,WeatherDisplay:10.37,2013-10-26 13:05:00,
2013-10-26 08:07:00,46.4,32.0,28.58,NW,315,9.2,9.2,57,0.00,CLR,,0.00,WeatherDisplay:10.37,2013-10-26 13:07:00,
2013-10-26 08:08:00,46.6,31.7,28.58,WNW,292,15.0,15.0,56,0.00,CLR,,0.00,WeatherDisplay:10.37,2013-10-26 13:08:00,
2013-10-26 08:09:00,46.6,31.7,28.58,NNW,338,5.8,5.8,56,0.00,CLR,,0.00,WeatherDisplay:10.37,2013-10-26 13:09:00,
2013-10-26 08:10:00,46.8,32.3,28.61,WNW,292,12.7,12.7,57,0.00,CLR,,0.00,WeatherDisplay:10.37,2013-10-26 13:10:00,
2013-10-26 08:12:00,46.8,31.4,28.61,NW,315,8.1,8.1,55,0.00,CLR,,0.00,WeatherDisplay:10.37,2013-10-26 13:12:00,
2013-10-26 08:13:00,47.1,31.8,28.61,NW,315,5.8,5.8,55,0.00,CLR,,0.00,WeatherDisplay:10.37,2013-10-26 13:13:00,
2013-10-26 08:14:00,47.3,32.4,28.61,NNW,338,6.0,6.0,56,0.00,CLR,,0.00,WeatherDisplay:10.37,2013-10-26 13:14:00,
2013-10-26 08:15:00,47.5,32.1,28.61,WNW,292,6.2,6.2,55,0.00,CLR,,0.00,WeatherDisplay:10.37,2013-10-26 13:15:00,
2013-10-26 08:16:00,47.5,32.1,28.61,North,0,5.8,5.8,55,0.00,CLR,,0.00,WeatherDisplay:10.37,2013-10-26 13:16:00,
2013-10-26 08:17:00,47.3,31.9,28.61,West,270,6.9,6.9,55,0.00,CLR,,0.00,WeatherDisplay:10.37,2013-10-26 13:17:00,
2013-10-26 08:18:00,46.9,31.1,28.61,WNW,292,6.9,6.9,54,0.00,CLR,,0.00,WeatherDisplay:10.37,2013-10-26 13:18:00,
2013-10-26 08:19:00,46.9,31.1,28.61,WNW,292,8.7,8.7,54,0.00,CLR,,0.00,WeatherDisplay:10.37,2013-10-26 13:19:00,
2013-10-26 08:20:00,46.9,31.1,28.61,NNW,338,9.2,9.2,54,0.00,CLR,,0.00,WeatherDisplay:10.37,2013-10-26 13:20:00,
2013-10-26 08:21:00,47.1,31.3,28.61,WSW,248,8.1,8.1,54,0.00,CLR,,0.00,WeatherDisplay:10.37,2013-10-26 13:21:00,
2013-10-26 08:22:00,47.3,31.5,28.61,WNW,292,13.0,13.0,54,0.00,CLR,,0.00,WeatherDisplay:10.37,2013-10-26 13:22:00,
2013-10-26 08:24:00,46.8,30.5,28.61,West,270,8.1,8.1,53,0.00,CLR,,0.00,WeatherDisplay:10.37,2013-10-26 13:24:00,
2013-10-26 08:25:00,46.8,30.5,28.61,NW,315,9.2,9.2,53,0.00,CLR,,0.00,WeatherDisplay:10.37,2013-10-26 13:25:00,
2013-10-26 08:26:00,46.2,30.5,28.61,WNW,292,9.2,9.2,54,0.00,CLR,,0.00,WeatherDisplay:10.37,2013-10-26 13:26:00,
2013-10-26 08:27:00,46.0,29.8,28.61,West,270,12.7,12.7,53,0.00,CLR,,0.00,WeatherDisplay:10.37,2013-10-26 13:27:00,
2013-10-26 08:29:00,45.7,30.0,28.61,NW,315,8.1,8.1,54,0.00,CLR,,0.00,WeatherDisplay:10.37,2013-10-26 13:29:00,
2013-10-26 08:30:00,45.7,30.0,28.61,North,0,8.1,8.1,54,0.00,CLR,,0.00,WeatherDisplay:10.37,2013-10-26 13:30:00,
2013-10-26 08:31:00,45.5,29.8,28.61,West,270,11.5,11.5,54,0.00,CLR,,0.00,WeatherDisplay:10.37,2013-10-26 13:31:00,
2013-10-26 08:32:00,45.5,29.8,28.61,WNW,292,11.5,11.5,54,0.00,CLR,,0.00,WeatherDisplay:10.37,2013-10-26 13:32:00,
2013-10-26 08:34:00,45.3,29.6,28.61,West,270,10.4,10.4,54,0.00,CLR,,0.00,WeatherDisplay:10.37,2013-10-26 13:34:00,
2013-10-26 08:35:00,45.3,29.6,28.61,NW,315,8.1,8.1,54,0.00,CLR,,0.00,WeatherDisplay:10.37,2013-10-26 13:35:00,
2013-10-26 08:36:00,45.3,29.6,28.61,NW,315,5.8,5.8,54,0.00,CLR,,0.00,WeatherDisplay:10.37,2013-10-26 13:36:00,
2013-10-26 08:37:00,45.3,29.6,28.61,WNW,292,6.4,6.4,54,0.00,CLR,,0.00,WeatherDisplay:10.37,2013-10-26 13:37:00,
2013-10-26 08:38:00,45.3,29.6,28.61,NW,315,6.9,6.9,54,0.00,CLR,,0.00,WeatherDisplay:10.37,2013-10-26 13:38:00,
2013-10-26 08:39:00,45.1,29.9,28.61,WNW,292,6.4,6.4,55,0.00,CLR,,0.00,WeatherDisplay:10.37,2013-10-26 13:39:00,
2013-10-26 08:41:00,45.1,29.5,28.64,NW,315,13.8,13.8,54,0.00,CLR,,0.00,WeatherDisplay:10.37,2013-10-26 13:41:00,
2013-10-26 08:42:00,45.0,28.8,28.64,NNW,338,9.2,9.4,53,0.00,CLR,,0.00,WeatherDisplay:10.37,2013-10-26 13:42:00,
2013-10-26 08:43:00,45.0,28.8,28.64,NNW,338,8.1,8.1,53,0.00,CLR,,0.00,WeatherDisplay:10.37,2013-10-26 13:43:00,
2013-10-26 08:44:00,45.1,29.5,28.64,NNW,338,10.0,10.0,54,0.00,CLR,,0.00,WeatherDisplay:10.37,2013-10-26 13:44:00,
2013-10-26 08:46:00,45.0,29.3,28.64,WNW,292,13.8,13.8,54,0.00,CLR,,0.00,WeatherDisplay:10.37,2013-10-26 13:46:00,
2013-10-26 08:47:00,45.0,29.3,28.64,NW,315,13.8,13.8,54,0.00,CLR,,0.00,WeatherDisplay:10.37,2013-10-26 13:47:00,
2013-10-26 08:48:00,45.0,29.3,28.64,WNW,292,8.1,8.1,54,0.00,CLR,,0.00,WeatherDisplay:10.37,2013-10-26 13:48:00,
2013-10-26 08:50:00,45.0,29.3,28.64,NW,315,8.1,8.1,54,0.00,CLR,,0.00,WeatherDisplay:10.37,2013-10-26 13:50:00,
2013-10-26 08:51:00,45.0,29.3,28.64,WNW,292,13.8,13.8,54,0.00,CLR,,0.00,WeatherDisplay:10.37,2013-10-26 13:51:00,
2013-10-26 08:52:00,45.0,29.3,28.64,NNW,338,12.7,12.7,54,0.00,CLR,,0.00,WeatherDisplay:10.37,2013-10-26 13:52:00,
2013-10-26 08:53:00,45.0,29.3,28.64,NNW,338,13.5,13.5,54,0.00,CLR,,0.00,WeatherDisplay:10.37,2013-10-26 13:53:00,
2013-10-26 08:55:00,45.0,29.3,28.64,WNW,292,12.1,12.1,54,0.00,CLR,,0.00,WeatherDisplay:10.37,2013-10-26 13:55:00,
2013-10-26 08:56:00,45.1,29.5,28.64,North,0,11.5,11.5,54,0.00,CLR,,0.00,WeatherDisplay:10.37,2013-10-26 13:56:00,
2013-10-26 08:57:00,45.1,29.5,28.64,NW,315,8.1,8.1,54,0.00,CLR,,0.00,WeatherDisplay:10.37,2013-10-26 13:57:00,
2013-10-26 08:58:00,45.1,29.5,28.64,WNW,292,5.8,5.8,54,0.00,CLR,,0.00,WeatherDisplay:10.37,2013-10-26 13:58:00,
2013-10-26 08:59:00,45.3,29.6,28.64,NE,45,10.4,10.4,54,0.00,CLR,,0.00,WeatherDisplay:10.37,2013-10-26 13:59:00,
2013-10-26 09:00:00,45.3,29.6,28.64,NNW,338,11.5,11.5,54,0.00,CLR,,0.00,WeatherDisplay:10.37,2013-10-26 14:00:00,
2013-10-26 09:02:00,45.3,29.6,28.64,NW,315,10.4,10.4,54,0.00,CLR,,0.00,WeatherDisplay:10.37,2013-10-26 14:02:00,
2013-10-26 09:03:00,45.1,29.5,28.64,NNW,338,10.4,10.4,54,0.00,CLR,,0.00,WeatherDisplay:10.37,2013-10-26 14:03:00,
2013-10-26 09:04:00,45.1,29.5,28.64,WNW,292,9.2,9.2,54,0.00,CLR,,0.00,WeatherDisplay:10.37,2013-10-26 14:04:00,
2013-10-26 09:05:00,45.1,29.5,28.64,North,0,10.7,10.7,54,0.00,CLR,,0.00,WeatherDisplay:10.37,2013-10-26 14:05:00,
2013-10-26 09:07:00,45.1,29.0,28.64,North,0,10.4,10.4,53,0.00,CLR,,0.00,WeatherDisplay:10.37,2013-10-26 14:07:00,
2013-10-26 09:08:00,45.1,29.0,28.64,NW,315,10.4,10.4,53,0.00,CLR,,0.00,WeatherDisplay:10.37,2013-10-26 14:08:00,
2013-10-26 09:09:00,45.1,29.0,28.64,North,0,9.2,9.4,53,0.00,CLR,,0.00,WeatherDisplay:10.37,2013-10-26 14:09:00,
2013-10-26 09:10:00,45.1,29.0,28.67,NNW,338,10.4,10.4,53,0.00,CLR,,0.00,WeatherDisplay:10.37,2013-10-26 14:10:00,
2013-10-26 09:12:00,45.3,29.2,28.67,North,0,6.9,6.9,53,0.00,CLR,,0.00,WeatherDisplay:10.37,2013-10-26 14:12:00,
2013-10-26 09:13:00,45.3,29.2,28.67,West,270,5.8,5.8,53,0.00,CLR,,0.00,WeatherDisplay:10.37,2013-10-26 14:13:00,
2013-10-26 09:14:00,45.3,29.2,28.67,NW,315,7.6,7.6,53,0.00,CLR,,0.00,WeatherDisplay:10.37,2013-10-26 14:14:00,
2013-10-26 09:15:00,45.3,29.2,28.67,NW,315,8.1,8.1,53,0.00,CLR,,0.00,WeatherDisplay:10.37,2013-10-26 14:15:00,
2013-10-26 09:17:00,46.6,30.3,28.67,North,0,5.8,5.8,53,0.00,CLR,,0.00,WeatherDisplay:10.37,2013-10-26 14:17:00,
2013-10-26 09:18:00,46.4,29.7,28.67,WNW,292,10.2,10.2,52,0.00,CLR,,0.00,WeatherDisplay:10.37,2013-10-26 14:18:00,
2013-10-26 09:19:00,46.2,29.5,28.67,NNW,338,10.4,10.4,52,0.00,CLR,,0.00,WeatherDisplay:10.37,2013-10-26 14:19:00,
2013-10-26 09:20:00,46.2,29.5,28.67,North,0,10.4,10.4,52,0.00,CLR,,0.00,WeatherDisplay:10.37,2013-10-26 14:20:00,
2013-10-26 09:23:00,45.5,29.3,28.67,West,270,8.7,8.7,53,0.00,CLR,,0.00,WeatherDisplay:10.37,2013-10-26 14:23:00,
2013-10-26 09:24:00,45.5,28.9,28.67,NNW,338,9.2,9.2,52,0.00,CLR,,0.00,WeatherDisplay:10.37,2013-10-26 14:24:00,
2013-10-26 09:25:00,45.5,29.3,28.67,WNW,292,6.9,7.1,53,0.00,CLR,,0.00,WeatherDisplay:10.37,2013-10-26 14:25:00,
2013-10-26 09:28:00,45.5,28.9,28.67,NNW,338,12.7,12.7,52,0.00,CLR,,0.00,WeatherDisplay:10.37,2013-10-26 14:28:00,
2013-10-26 09:29:00,45.5,28.9,28.67,WNW,292,9.2,9.2,52,0.00,CLR,,0.00,WeatherDisplay:10.37,2013-10-26 14:29:00,
2013-10-26 09:30:00,45.5,28.9,28.67,NNW,338,6.9,6.9,52,0.00,CLR,,0.00,WeatherDisplay:10.37,2013-10-26 14:30:00,
2013-10-26 09:31:00,45.3,28.2,28.67,NW,315,20.7,20.7,51,0.00,CLR,,0.00,WeatherDisplay:10.37,2013-10-26 14:31:00,
2013-10-26 09:34:00,45.1,28.1,28.67,NW,315,13.8,13.8,51,0.00,CLR,,0.00,WeatherDisplay:10.37,2013-10-26 14:34:00,
2013-10-26 09:35:00,45.1,28.1,28.67,North,0,13.8,13.8,51,0.00,CLR,,0.00,WeatherDisplay:10.37,2013-10-26 14:35:00,
2013-10-26 09:36:00,45.1,28.5,28.67,NW,315,15.0,15.0,52,0.00,CLR,,0.00,WeatherDisplay:10.37,2013-10-26 14:36:00,
2013-10-26 09:39:00,45.1,28.5,28.67,North,0,15.0,15.0,52,0.00,CLR,,0.00,WeatherDisplay:10.37,2013-10-26 14:39:00,
2013-10-26 09:40:00,45.1,28.5,28.64,NNW,338,10.4,10.4,52,0.00,CLR,,0.00,WeatherDisplay:10.37,2013-10-26 14:40:00,
2013-10-26 09:41:00,45.1,29.0,28.64,WNW,292,12.7,12.7,53,0.00,CLR,,0.00,WeatherDisplay:10.37,2013-10-26 14:41:00,
2013-10-26 09:44:00,45.1,28.5,28.64,NW,315,13.8,13.8,52,0.00,CLR,,0.00,WeatherDisplay:10.37,2013-10-26 14:44:00,
2013-10-26 09:45:00,45.3,28.7,28.64,West,270,10.4,10.4,52,0.00,CLR,,0.00,WeatherDisplay:10.37,2013-10-26 14:45:00,
2013-10-26 09:46:00,45.3,28.7,28.64,NW,315,11.5,11.5,52,0.00,CLR,,0.00,WeatherDisplay:10.37,2013-10-26 14:46:00,
2013-10-26 09:49:00,45.5,27.9,28.64,North,0,10.4,10.4,50,0.00,CLR,,0.00,WeatherDisplay:10.37,2013-10-26 14:49:00,
2013-10-26 09:50:00,45.5,27.9,28.64,NW,315,12.3,12.3,50,0.00,CLR,,0.00,WeatherDisplay:10.37,2013-10-26 14:50:00,
2013-10-26 09:51:00,45.5,27.9,28.64,NW,315,12.7,12.7,50,0.00,CLR,,0.00,WeatherDisplay:10.37,2013-10-26 14:51:00,
2013-10-26 09:52:00,45.3,27.8,28.64,WNW,292,10.4,10.4,50,0.00,CLR,,0.00,WeatherDisplay:10.37,2013-10-26 14:52:00,
2013-10-26 09:54:00,45.3,27.8,28.65,NNW,330,9.0,15.0,50,0.00,CLR,,0.00,WeatherDisplay:10.37,2013-10-26 14:54:00,
2013-10-26 09:55:00,45.3,28.2,28.67,NNW,338,15.0,15.0,51,0.00,CLR,,0.00,WeatherDisplay:10.37,2013-10-26 14:55:00,
2013-10-26 09:56:00,45.1,27.6,28.67,NW,315,15.2,15.2,50,0.00,CLR,,0.00,WeatherDisplay:10.37,2013-10-26 14:56:00,
2013-10-26 09:57:00,44.8,27.3,28.67,NNE,22,18.4,18.4,50,0.00,CLR,,0.00,WeatherDisplay:10.37,2013-10-26 14:57:00,
2013-10-26 10:00:00,44.8,27.3,28.67,NW,315,20.7,20.7,50,0.00,CLR,,0.00,WeatherDisplay:10.37,2013-10-26 15:00:00,
2013-10-26 10:01:00,44.6,27.1,28.67,NNW,338,20.7,20.7,50,0.00,CLR,,0.00,WeatherDisplay:10.37,2013-10-26 15:01:00,
2013-10-26 10:02:00,44.6,27.1,28.67,WNW,292,12.7,12.7,50,0.00,CLR,,0.00,WeatherDisplay:10.37,2013-10-26 15:02:00,
2013-10-26 10:03:00,44.6,27.1,28.67,NNW,338,10.4,10.4,50,0.00,CLR,,0.00,WeatherDisplay:10.37,2013-10-26 15:03:00,
2013-10-26 10:05:00,44.6,27.1,28.67,WNW,292,12.7,12.7,50,0.00,CLR,,0.00,WeatherDisplay:10.37,2013-10-26 15:05:00,
2013-10-26 10:06:00,44.6,26.6,28.67,North,0,12.7,12.7,49,0.00,CLR,,0.00,WeatherDisplay:10.37,2013-10-26 15:06:00,
2013-10-26 10:07:00,44.6,27.1,28.67,NW,315,14.7,14.7,50,0.00,CLR,,0.00,WeatherDisplay:10.37,2013-10-26 15:07:00,
2013-10-26 10:08:00,44.6,27.1,28.67,North,0,15.0,15.0,50,0.00,CLR,,0.00,WeatherDisplay:10.37,2013-10-26 15:08:00,
2013-10-26 10:10:00,44.8,27.3,28.67,WNW,292,15.2,15.2,50,0.00,CLR,,0.00,WeatherDisplay:10.37,2013-10-26 15:10:00,
2013-10-26 10:11:00,45.3,27.8,28.67,NNW,338,15.0,15.0,50,0.00,CLR,,0.00,WeatherDisplay:10.37,2013-10-26 15:11:00,
2013-10-26 10:12:00,45.9,28.3,28.67,West,270,12.8,12.8,50,0.00,CLR,,0.00,WeatherDisplay:10.37,2013-10-26 15:12:00,
2013-10-26 10:13:00,45.9,28.3,28.67,NW,315,12.7,12.7,50,0.00,CLR,,0.00,WeatherDisplay:10.37,2013-10-26 15:13:00,
2013-10-26 10:15:00,46.2,28.1,28.67,NNW,338,15.2,15.2,49,0.00,CLR,,0.00,WeatherDisplay:10.37,2013-10-26 15:15:00,
2013-10-26 10:16:00,46.6,28.4,28.67,NNW,338,15.0,15.0,49,0.00,CLR,,0.00,WeatherDisplay:10.37,2013-10-26 15:16:00,
2013-10-26 10:17:00,46.9,28.8,28.67,North,0,12.7,12.7,49,0.00,CLR,,0.00,WeatherDisplay:10.37,2013-10-26 15:17:00,
2013-10-26 10:18:00,46.9,28.8,28.67,North,0,12.7,12.7,49,0.00,CLR,,0.00,WeatherDisplay:10.37,2013-10-26 15:18:00,
2013-10-26 10:20:00,46.6,28.4,28.67,NW,315,10.4,10.4,49,0.00,CLR,,0.00,WeatherDisplay:10.37,2013-10-26 15:20:00,
2013-10-26 10:22:00,46.4,28.3,28.67,NNW,338,15.0,15.0,49,0.00,CLR,,0.00,WeatherDisplay:10.37,2013-10-26 15:22:00,
2013-10-26 10:23:00,46.4,28.3,28.67,North,0,12.7,12.7,49,0.00,CLR,,0.00,WeatherDisplay:10.37,2013-10-26 15:23:00,
2013-10-26 10:25:00,46.2,28.6,28.67,WNW,292,13.8,13.8,50,0.00,CLR,,0.00,WeatherDisplay:10.37,2013-10-26 15:25:00,
2013-10-26 10:27:00,46.4,28.8,28.67,WNW,292,9.2,9.2,50,0.00,CLR,,0.00,WeatherDisplay:10.37,2013-10-26 15:27:00,
2013-10-26 10:28:00,46.4,28.8,28.67,NW,315,10.4,10.4,50,0.00,CLR,,0.00,WeatherDisplay:10.37,2013-10-26 15:28:00,
2013-10-26 10:29:00,46.2,29.1,28.67,WNW,292,11.5,11.5,51,0.00,CLR,,0.00,WeatherDisplay:10.37,2013-10-26 15:29:00,
2013-10-26 10:31:00,46.2,29.1,28.67,WNW,292,12.7,12.7,51,0.00,CLR,,0.00,WeatherDisplay:10.37,2013-10-26 15:31:00,
2013-10-26 10:32:00,46.0,28.9,28.67,NNW,338,12.7,12.7,51,0.00,CLR,,0.00,WeatherDisplay:10.37,2013-10-26 15:32:00,
2013-10-26 10:33:00,45.7,28.6,28.67,NNW,338,16.1,16.1,51,0.00,CLR,,0.00,WeatherDisplay:10.37,2013-10-26 15:33:00,
2013-10-26 10:34:00,45.5,28.9,28.67,NNE,22,17.3,17.3,52,0.00,CLR,,0.00,WeatherDisplay:10.37,2013-10-26 15:34:00,
2013-10-26 10:36:00,45.1,29.5,28.67,NW,315,13.8,13.8,54,0.00,CLR,,0.00,WeatherDisplay:10.37,2013-10-26 15:36:00,
2013-10-26 10:38:00,44.6,29.4,28.67,NW,315,17.3,17.3,55,0.00,CLR,,0.00,WeatherDisplay:10.37,2013-10-26 15:38:00,
2013-10-26 10:39:00,44.6,29.4,28.67,NW,315,13.8,13.8,55,0.00,CLR,,0.00,WeatherDisplay:10.37,2013-10-26 15:39:00,
2013-10-26 10:40:00,44.6,29.4,28.70,NW,315,11.5,11.5,55,0.00,CLR,,0.00,WeatherDisplay:10.37,2013-10-26 15:40:00,
2013-10-26 10:41:00,44.8,29.6,28.70,NW,315,12.7,12.7,55,0.00,CLR,,0.00,WeatherDisplay:10.37,2013-10-26 15:41:00,
2013-10-26 10:43:00,44.8,29.6,28.70,NW,315,15.0,15.0,55,0.00,CLR,,0.00,WeatherDisplay:10.37,2013-10-26 15:43:00,
2013-10-26 10:44:00,45.0,30.2,28.70,WNW,292,13.0,13.0,56,0.00,CLR,,0.00,WeatherDisplay:10.37,2013-10-26 15:44:00,
2013-10-26 10:45:00,45.0,30.2,28.70,NW,315,17.5,17.5,56,0.00,CLR,,0.00,WeatherDisplay:10.37,2013-10-26 15:45:00,
2013-10-26 10:46:00,45.7,30.0,28.70,NW,315,17.3,17.3,54,0.00,CLR,,0.00,WeatherDisplay:10.37,2013-10-26 15:46:00,
2013-10-26 10:48:00,45.9,29.7,28.70,NNW,338,15.0,15.0,53,0.00,CLR,,0.00,WeatherDisplay:10.37,2013-10-26 15:48:00,
2013-10-26 10:49:00,45.5,29.3,28.70,NW,315,13.8,13.8,53,0.00,CLR,,0.00,WeatherDisplay:10.37,2013-10-26 15:49:00,
2013-10-26 10:50:00,45.3,29.2,28.70,North,0,13.8,13.8,53,0.00,CLR,,0.00,WeatherDisplay:10.37,2013-10-26 15:50:00,
2013-10-26 10:51:00,45.7,29.5,28.70,NNE,22,13.8,13.8,53,0.00,CLR,,0.00,WeatherDisplay:10.37,2013-10-26 15:51:00,
2013-10-26 10:52:00,45.9,29.7,28.70,North,0,17.5,17.5,53,0.00,CLR,,0.00,WeatherDisplay:10.37,2013-10-26 15:52:00,
2013-10-26 10:53:00,46.4,29.2,28.70,NNW,338,17.3,17.3,51,0.00,CLR,,0.00,WeatherDisplay:10.37,2013-10-26 15:53:00,
2013-10-26 10:54:00,46.4,28.8,28.70,NW,315,17.3,17.3,50,0.00,CLR,,0.00,WeatherDisplay:10.37,2013-10-26 15:54:00,
2013-10-26 10:55:00,46.6,28.9,28.73,North,0,19.4,19.4,50,0.00,CLR,,0.00,WeatherDisplay:10.37,2013-10-26 15:55:00,
2013-10-26 10:56:00,46.6,28.9,28.73,NNW,338,19.6,19.6,50,0.00,CLR,,0.00,WeatherDisplay:10.37,2013-10-26 15:56:00,
2013-10-26 10:57:00,46.9,29.2,28.73,NNW,338,12.7,12.7,50,0.00,CLR,,0.00,WeatherDisplay:10.37,2013-10-26 15:57:00,
2013-10-26 10:59:00,47.8,30.6,28.73,North,0,12.7,12.7,51,0.00,CLR,,0.00,WeatherDisplay:10.37,2013-10-26 15:59:00,
2013-10-26 11:00:00,48.7,30.9,28.73,NW,315,12.7,12.7,50,0.00,CLR,,0.00,WeatherDisplay:10.37,2013-10-26 16:00:00,
2013-10-26 11:02:00,48.7,29.4,28.73,NW,315,12.7,12.7,47,0.00,CLR,,0.00,WeatherDisplay:10.37,2013-10-26 16:02:00,
2013-10-26 11:04:00,48.2,28.9,28.73,NW,315,10.4,10.4,47,0.00,CLR,,0.00,WeatherDisplay:10.37,2013-10-26 16:04:00,
2013-10-26 11:05:00,47.8,28.6,28.73,NNW,338,12.7,12.7,47,0.00,CLR,,0.00,WeatherDisplay:10.37,2013-10-26 16:05:00,
2013-10-26 11:06:00,47.8,28.6,28.73,NNW,338,12.8,12.8,47,0.00,CLR,,0.00,WeatherDisplay:10.37,2013-10-26 16:06:00,
2013-10-26 11:07:00,47.8,28.6,28.73,North,0,13.8,13.8,47,0.00,CLR,,0.00,WeatherDisplay:10.37,2013-10-26 16:07:00,
2013-10-26 11:08:00,46.8,27.0,28.73,West,270,11.5,11.5,46,0.00,CLR,,0.00,WeatherDisplay:10.37,2013-10-26 16:08:00,
2013-10-26 11:09:00,46.2,26.0,28.73,NW,315,12.7,12.7,45,0.00,CLR,,0.00,WeatherDisplay:10.37,2013-10-26 16:09:00,
2013-10-26 11:11:00,46.4,26.2,28.76,NW,315,10.4,10.4,45,0.00,CLR,,0.00,WeatherDisplay:10.37,2013-10-26 16:11:00,
2013-10-26 11:12:00,46.8,27.0,28.76,NW,315,12.7,12.7,46,0.00,CLR,,0.00,WeatherDisplay:10.37,2013-10-26 16:12:00,
2013-10-26 11:13:00,47.5,27.7,28.76,NW,315,11.5,11.5,46,0.00,CLR,,0.00,WeatherDisplay:10.37,2013-10-26 16:13:00,
2013-10-26 11:14:00,48.0,28.2,28.76,NW,315,10.4,10.4,46,0.00,CLR,,0.00,WeatherDisplay:10.37,2013-10-26 16:14:00,
2013-10-26 11:15:00,48.0,28.2,28.76,WNW,292,9.2,9.2,46,0.00,CLR,,0.00,WeatherDisplay:10.37,2013-10-26 16:15:00,
2013-10-26 11:17:00,48.7,27.8,28.76,NW,315,12.7,12.7,44,0.00,CLR,,0.00,WeatherDisplay:10.37,2013-10-26 16:17:00,
2013-10-26 11:18:00,48.7,27.8,28.76,NNW,338,11.5,11.5,44,0.00,CLR,,0.00,WeatherDisplay:10.37,2013-10-26 16:18:00,
2013-10-26 11:19:00,48.0,27.7,28.76,NW,315,10.4,10.4,45,0.00,CLR,,0.00,WeatherDisplay:10.37,2013-10-26 16:19:00,
2013-10-26 11:20:00,48.0,27.7,28.76,NW,315,10.9,10.9,45,0.00,CLR,,0.00,WeatherDisplay:10.37,2013-10-26 16:20:00,
2013-10-26 11:22:00,47.5,28.2,28.76,NNW,338,15.0,15.0,47,0.00,CLR,,0.00,WeatherDisplay:10.37,2013-10-26 16:22:00,
2013-10-26 11:23:00,47.3,28.1,28.76,NW,315,9.2,9.2,47,0.00,CLR,,0.00,WeatherDisplay:10.37,2013-10-26 16:23:00,
2013-10-26 11:24:00,47.1,27.4,28.70,WNW,292,20.8,20.8,46,0.00,CLR,,0.00,WeatherDisplay:10.37,2013-10-26 16:24:00,
2013-10-26 11:25:00,46.8,26.0,28.70,WNW,292,20.7,20.7,44,0.00,CLR,,0.00,WeatherDisplay:10.37,2013-10-26 16:25:00,
2013-10-26 11:28:00,47.1,25.7,28.70,NW,315,13.5,13.5,43,0.00,CLR,,0.00,WeatherDisplay:10.37,2013-10-26 16:28:00,
2013-10-26 11:29:00,47.1,25.7,28.70,WNW,292,13.8,13.8,43,0.00,CLR,,0.00,WeatherDisplay:10.37,2013-10-26 16:29:00,
2013-10-26 11:30:00,47.5,25.5,28.70,WNW,292,10.4,10.4,42,0.00,CLR,,0.00,WeatherDisplay:10.37,2013-10-26 16:30:00,
2013-10-26 11:31:00,47.7,25.7,28.70,NW,315,10.4,10.4,42,0.00,CLR,,0.00,WeatherDisplay:10.37,2013-10-26 16:31:00,
2013-10-26 11:34:00,49.1,27.0,28.70,NW,315,12.1,12.1,42,0.00,CLR,,0.00,WeatherDisplay:10.37,2013-10-26 16:34:00,
2013-10-26 11:35:00,48.7,26.6,28.70,WNW,292,11.5,11.5,42,0.00,CLR,,0.00,WeatherDisplay:10.37,2013-10-26 16:35:00,
2013-10-26 11:36:00,48.0,26.0,28.70,NNW,338,16.1,16.1,42,0.00,CLR,,0.00,WeatherDisplay:10.37,2013-10-26 16:36:00,
2013-10-26 11:39:00,47.3,25.3,28.70,WNW,292,13.8,13.8,42,0.00,CLR,,0.00,WeatherDisplay:10.37,2013-10-26 16:39:00,
2013-10-26 11:40:00,47.1,25.2,28.73,NW,315,19.6,19.6,42,0.00,CLR,,0.00,WeatherDisplay:10.37,2013-10-26 16:40:00,
2013-10-26 11:41:00,46.9,25.0,28.73,WNW,292,19.6,19.6,42,0.00,CLR,,0.00,WeatherDisplay:10.37,2013-10-26 16:41:00,
2013-10-26 11:44:00,46.4,25.1,28.73,NW,315,13.8,13.8,43,0.00,CLR,,0.00,WeatherDisplay:10.37,2013-10-26 16:44:00,
2013-10-26 11:45:00,46.8,25.4,28.73,NW,315,10.4,10.4,43,0.00,CLR,,0.00,WeatherDisplay:10.37,2013-10-26 16:45:00,
2013-10-26 11:46:00,47.3,26.5,28.73,NW,315,13.8,13.8,44,0.00,CLR,,0.00,WeatherDisplay:10.37,2013-10-26 16:46:00,
2013-10-26 11:49:00,48.2,26.7,28.73,North,0,12.7,12.7,43,0.00,CLR,,0.00,WeatherDisplay:10.37,2013-10-26 16:49:00,
2013-10-26 11:50:00,48.6,27.1,28.73,NNE,22,10.4,10.4,43,0.00,CLR,,0.00,WeatherDisplay:10.37,2013-10-26 16:50:00,
2013-10-26 11:51:00,48.7,27.2,28.73,NNW,338,12.7,12.7,43,0.00,CLR,,0.00,WeatherDisplay:10.37,2013-10-26 16:51:00,
2013-10-26 11:55:00,47.8,26.4,28.76,WNW,292,9.7,9.7,43,0.00,CLR,,0.00,WeatherDisplay:10.37,2013-10-26 16:55:00,
2013-10-26 11:56:00,47.8,26.4,28.76,NNW,338,12.1,12.1,43,0.00,CLR,,0.00,WeatherDisplay:10.37,2013-10-26 16:56:00,
2013-10-26 11:59:00,47.7,25.7,28.76,NW,315,10.4,10.4,42,0.00,CLR,,0.00,WeatherDisplay:10.37,2013-10-26 16:59:00,
2013-10-26 12:01:00,48.0,26.6,28.76,North,0,12.7,12.7,43,0.00,CLR,,0.00,WeatherDisplay:10.37,2013-10-26 17:01:00,
2013-10-26 12:02:00,48.2,26.7,28.76,North,0,15.0,15.0,43,0.00,CLR,,0.00,WeatherDisplay:10.37,2013-10-26 17:02:00,
2013-10-26 12:04:00,47.3,24.2,28.76,North,0,17.3,17.3,40,0.00,CLR,,0.00,WeatherDisplay:10.37,2013-10-26 17:04:00,
2013-10-26 12:06:00,47.5,24.3,28.76,NW,315,15.0,15.0,40,0.00,CLR,,0.00,WeatherDisplay:10.37,2013-10-26 17:06:00,
2013-10-26 12:07:00,47.3,24.8,28.76,NNW,338,12.7,12.7,41,0.00,CLR,,0.00,WeatherDisplay:10.37,2013-10-26 17:07:00,
2013-10-26 12:10:00,46.6,24.1,28.76,WNW,292,11.5,11.5,41,0.00,CLR,,0.00,WeatherDisplay:10.37,2013-10-26 17:10:00,
2013-10-26 12:11:00,46.4,23.9,28.76,WNW,292,12.1,12.1,41,0.00,CLR,,0.00,WeatherDisplay:10.37,2013-10-26 17:11:00,
2013-10-26 12:12:00,46.8,24.3,28.76,NNW,338,11.5,11.5,41,0.00,CLR,,0.00,WeatherDisplay:10.37,2013-10-26 17:12:00,
2013-10-26 12:13:00,46.8,24.3,28.76,North,0,12.8,12.8,41,0.00,CLR,,0.00,WeatherDisplay:10.37,2013-10-26 17:13:00,
2013-10-26 12:15:00,47.3,25.3,28.76,NW,315,16.1,16.1,42,0.00,CLR,,0.00,WeatherDisplay:10.37,2013-10-26 17:15:00,
2013-10-26 12:16:00,47.3,24.8,28.76,North,0,15.0,15.0,41,0.00,CLR,,0.00,WeatherDisplay:10.37,2013-10-26 17:16:00,
2013-10-26 12:17:00,47.8,25.2,28.76,WNW,292,10.4,10.9,41,0.00,CLR,,0.00,WeatherDisplay:10.37,2013-10-26 17:17:00,
2013-10-26 12:18:00,48.0,26.0,28.76,WNW,292,13.8,13.8,42,0.00,CLR,,0.00,WeatherDisplay:10.37,2013-10-26 17:18:00,
2013-10-26 12:21:00,47.8,24.7,28.76,NNW,338,17.3,17.3,40,0.00,CLR,,0.00,WeatherDisplay:10.37,2013-10-26 17:21:00,
2013-10-26 12:22:00,48.0,24.8,28.76,NW,315,15.0,15.0,40,0.00,CLR,,0.00,WeatherDisplay:10.37,2013-10-26 17:22:00,
2013-10-26 12:24:00,48.2,24.4,28.76,NW,315,18.4,18.4,39,0.00,CLR,,0.00,WeatherDisplay:10.37,2013-10-26 17:24:00,
2013-10-26 12:26:00,47.7,23.9,28.76,North,0,18.4,18.4,39,0.00,CLR,,0.00,WeatherDisplay:10.37,2013-10-26 17:26:00,
2013-10-26 12:27:00,48.0,24.2,28.76,NW,315,16.1,16.1,39,0.00,CLR,,0.00,WeatherDisplay:10.37,2013-10-26 17:27:00,
2013-10-26 12:29:00,48.0,24.2,28.76,WNW,292,15.4,15.4,39,0.00,CLR,,0.00,WeatherDisplay:10.37,2013-10-26 17:29:00,
2013-10-26 12:31:00,47.8,24.7,28.76,West,270,12.7,12.7,40,0.00,CLR,,0.00,WeatherDisplay:10.37,2013-10-26 17:31:00,
2013-10-26 12:32:00,47.8,24.7,28.76,NNW,338,13.8,13.8,40,0.00,CLR,,0.00,WeatherDisplay:10.37,2013-10-26 17:32:00,
2013-10-26 12:34:00,48.0,24.2,28.76,NW,315,12.5,12.5,39,0.00,CLR,,0.00,WeatherDisplay:10.37,2013-10-26 17:34:00,
2013-10-26 12:35:00,48.0,24.2,28.76,NW,315,15.0,15.0,39,0.00,CLR,,0.00,WeatherDisplay:10.37,2013-10-26 17:35:00,
2013-10-26 12:36:00,48.0,24.2,28.76,NNW,338,17.3,17.3,39,0.00,CLR,,0.00,WeatherDisplay:10.37,2013-10-26 17:36:00,
2013-10-26 12:37:00,47.7,23.9,28.76,North,0,17.3,17.3,39,0.00,CLR,,0.00,WeatherDisplay:10.37,2013-10-26 17:37:00,
2013-10-26 12:40:00,48.0,24.2,28.76,WNW,292,15.6,15.6,39,0.00,CLR,,0.00,WeatherDisplay:10.37,2013-10-26 17:40:00,
2013-10-26 12:42:00,48.4,23.9,28.76,NNW,338,16.1,16.1,38,0.00,CLR,,0.00,WeatherDisplay:10.37,2013-10-26 17:42:00,
2013-10-26 12:43:00,48.4,24.5,28.76,North,0,15.0,15.0,39,0.00,CLR,,0.00,WeatherDisplay:10.37,2013-10-26 17:43:00,
2013-10-26 12:46:00,48.0,24.2,28.76,NW,315,20.7,20.7,39,0.00,CLR,,0.00,WeatherDisplay:10.37,2013-10-26 17:46:00,
2013-10-26 12:47:00,48.0,24.2,28.76,NNW,338,20.7,20.7,39,0.00,CLR,,0.00,WeatherDisplay:10.37,2013-10-26 17:47:00,
2013-10-26 12:48:00,48.0,24.2,28.76,NW,315,12.8,12.8,39,0.00,CLR,,0.00,WeatherDisplay:10.37,2013-10-26 17:48:00,
2013-10-26 12:51:00,47.8,23.4,28.76,NW,315,12.7,12.7,38,0.00,CLR,,0.00,WeatherDisplay:10.37,2013-10-26 17:51:00,
2013-10-26 12:52:00,47.7,23.3,28.76,NNW,338,13.8,13.8,38,0.00,CLR,,0.00,WeatherDisplay:10.37,2013-10-26 17:52:00,
2013-10-26 12:53:00,47.7,23.3,28.76,NW,315,13.8,13.8,38,0.00,CLR,,0.00,WeatherDisplay:10.37,2013-10-26 17:53:00,
2013-10-26 12:56:00,47.5,23.7,28.76,NNW,338,9.2,9.2,39,0.00,CLR,,0.00,WeatherDisplay:10.37,2013-10-26 17:56:00,
2013-10-26 12:57:00,47.5,23.7,28.76,NW,315,9.2,9.2,39,0.00,CLR,,0.00,WeatherDisplay:10.37,2013-10-26 17:57:00,
2013-10-26 12:58:00,47.5,23.7,28.76,NW,315,8.1,8.1,39,0.00,CLR,,0.00,WeatherDisplay:10.37,2013-10-26 17:58:00,
2013-10-26 13:02:00,47.5,24.3,28.76,WNW,292,8.1,8.1,40,0.00,CLR,,0.00,WeatherDisplay:10.37,2013-10-26 18:02:00,
2013-10-26 13:03:00,47.5,24.3,28.76,West,270,5.8,5.8,40,0.00,CLR,,0.00,WeatherDisplay:10.37,2013-10-26 18:03:00,
2013-10-26 13:07:00,47.8,24.7,28.76,WNW,292,14.7,14.7,40,0.00,CLR,,0.00,WeatherDisplay:10.37,2013-10-26 18:07:00,
2013-10-26 13:08:00,48.2,24.4,28.76,NW,315,15.0,15.0,39,0.00,CLR,,0.00,WeatherDisplay:10.37,2013-10-26 18:08:00,
2013-10-26 13:09:00,48.6,24.7,28.76,North,0,11.5,11.5,39,0.00,CLR,,0.00,WeatherDisplay:10.37,2013-10-26 18:09:00,
2013-10-26 13:12:00,48.7,24.2,28.76,North,0,15.0,15.0,38,0.00,CLR,,0.00,WeatherDisplay:10.37,2013-10-26 18:12:00,
2013-10-26 13:13:00,48.7,24.2,28.76,North,0,15.0,15.0,38,0.00,CLR,,0.00,WeatherDisplay:10.37,2013-10-26 18:13:00,
2013-10-26 13:14:00,48.7,24.2,28.76,NW,315,18.4,18.4,38,0.00,CLR,,0.00,WeatherDisplay:10.37,2013-10-26 18:14:00,
2013-10-26 13:17:00,49.1,24.6,28.76,WNW,292,12.7,12.7,38,0.00,CLR,,0.00,WeatherDisplay:10.37,2013-10-26 18:17:00,
2013-10-26 13:18:00,49.1,24.6,28.76,WNW,292,12.7,12.7,38,0.00,CLR,,0.00,WeatherDisplay:10.37,2013-10-26 18:18:00,
2013-10-26 13:19:00,49.5,24.9,28.76,WNW,292,10.9,10.9,38,0.00,CLR,,0.00,WeatherDisplay:10.37,2013-10-26 18:19:00,
2013-10-26 13:23:00,50.2,24.9,28.76,NW,315,15.4,15.4,37,0.00,CLR,,0.00,WeatherDisplay:10.37,2013-10-26 18:23:00,
2013-10-26 13:24:00,50.4,25.0,28.76,North,0,15.0,15.0,37,0.00,CLR,,0.00,WeatherDisplay:10.37,2013-10-26 18:24:00,
2013-10-26 13:28:00,49.1,23.9,28.76,NNW,338,10.4,10.4,37,0.00,CLR,,0.00,WeatherDisplay:10.37,2013-10-26 18:28:00,
2013-10-26 13:29:00,48.9,24.4,28.76,NW,315,12.1,12.1,38,0.00,CLR,,0.00,WeatherDisplay:10.37,2013-10-26 18:29:00,
2013-10-26 13:33:00,48.2,23.7,28.76,North,0,11.5,11.5,38,0.00,CLR,,0.00,WeatherDisplay:10.37,2013-10-26 18:33:00,
2013-10-26 13:34:00,48.2,23.7,28.76,North,0,12.3,12.3,38,0.00,CLR,,0.00,WeatherDisplay:10.37,2013-10-26 18:34:00,
2013-10-26 13:35:00,48.2,23.7,28.76,WNW,292,9.8,9.8,38,0.00,CLR,,0.00,WeatherDisplay:10.37,2013-10-26 18:35:00,
2013-10-26 13:38:00,47.8,24.0,28.76,North,0,10.0,10.0,39,0.00,CLR,,0.00,WeatherDisplay:10.37,2013-10-26 18:38:00,
2013-10-26 13:39:00,47.8,24.0,28.76,NNW,338,11.5,11.5,39,0.00,CLR,,0.00,WeatherDisplay:10.37,2013-10-26 18:39:00,
2013-10-26 13:41:00,48.0,24.2,28.76,NW,315,10.4,10.4,39,0.00,CLR,,0.00,WeatherDisplay:10.37,2013-10-26 18:41:00,
2013-10-26 13:43:00,48.2,24.4,28.76,NNW,338,10.4,10.4,39,0.00,CLR,,0.00,WeatherDisplay:10.37,2013-10-26 18:43:00,
2013-10-26 13:44:00,48.2,24.4,28.76,NW,315,6.9,6.9,39,0.00,CLR,,0.00,WeatherDisplay:10.37,2013-10-26 18:44:00,
2013-10-26 13:46:00,48.4,24.5,28.76,NW,315,9.7,9.7,39,0.00,CLR,,0.00,WeatherDisplay:10.37,2013-10-26 18:46:00,
2013-10-26 13:49:00,48.0,24.2,28.76,NW,315,12.7,12.7,39,0.00,CLR,,0.00,WeatherDisplay:10.37,2013-10-26 18:49:00,
2013-10-26 13:51:00,48.0,23.6,28.76,North,0,18.4,18.4,38,0.00,CLR,,0.00,WeatherDisplay:10.37,2013-10-26 18:51:00,
2013-10-26 13:54:00,48.4,23.9,28.76,North,0,11.5,11.5,38,0.00,CLR,,0.00,WeatherDisplay:10.37,2013-10-26 18:54:00,
2013-10-26 13:57:00,48.2,23.7,28.76,North,0,12.7,12.7,38,0.00,CLR,,0.00,WeatherDisplay:10.37,2013-10-26 18:57:00,
2013-10-26 13:59:00,48.2,23.7,28.76,NNW,338,10.9,10.9,38,0.00,CLR,,0.00,WeatherDisplay:10.37,2013-10-26 18:59:00,
2013-10-26 14:00:00,48.0,24.2,28.76,NNW,338,15.0,15.0,39,0.00,CLR,,0.00,WeatherDisplay:10.37,2013-10-26 19:00:00,
2013-10-26 14:02:00,47.5,23.7,28.76,NW,315,10.4,10.4,39,0.00,CLR,,0.00,WeatherDisplay:10.37,2013-10-26 19:02:00,
2013-10-26 14:04:00,47.7,23.9,28.76,NNW,338,11.5,11.5,39,0.00,CLR,,0.00,WeatherDisplay:10.37,2013-10-26 19:04:00,
2013-10-26 14:05:00,47.7,23.9,28.76,NW,315,13.8,13.8,39,0.00,CLR,,0.00,WeatherDisplay:10.37,2013-10-26 19:05:00,
2013-10-26 14:07:00,48.6,24.1,28.76,NNW,338,19.6,19.6,38,0.00,CLR,,0.00,WeatherDisplay:10.37,2013-10-26 19:07:00,
2013-10-26 14:09:00,48.6,24.1,28.76,NW,315,13.8,13.8,38,0.00,CLR,,0.00,WeatherDisplay:10.37,2013-10-26 19:09:00,
2013-10-26 14:10:00,48.7,24.2,28.79,North,0,12.7,12.7,38,0.00,CLR,,0.00,WeatherDisplay:10.37,2013-10-26 19:10:00,
2013-10-26 14:13:00,48.4,23.9,28.79,WNW,292,17.3,17.3,38,0.00,CLR,,0.00,WeatherDisplay:10.37,2013-10-26 19:13:00,
2013-10-26 14:14:00,48.7,24.2,28.79,NW,315,16.1,16.1,38,0.00,CLR,,0.00,WeatherDisplay:10.37,2013-10-26 19:14:00,
2013-10-26 14:15:00,48.7,24.2,28.79,NNE,22,11.5,11.5,38,0.00,CLR,,0.00,WeatherDisplay:10.37,2013-10-26 19:15:00,
2013-10-26 14:16:00,48.7,24.2,28.79,NW,315,12.7,12.7,38,0.00,CLR,,0.00,WeatherDisplay:10.37,2013-10-26 19:16:00,
2013-10-26 14:18:00,48.7,24.2,28.79,WNW,292,13.8,13.8,38,0.00,CLR,,0.00,WeatherDisplay:10.37,2013-10-26 19:18:00,
2013-10-26 14:19:00,49.1,24.6,28.79,West,270,12.5,12.5,38,0.00,CLR,,0.00,WeatherDisplay:10.37,2013-10-26 19:19:00,
2013-10-26 14:20:00,48.9,24.4,28.79,West,270,13.2,13.2,38,0.00,CLR,,0.00,WeatherDisplay:10.37,2013-10-26 19:20:00,
2013-10-26 14:21:00,48.9,24.4,28.79,NW,315,13.8,13.8,38,0.00,CLR,,0.00,WeatherDisplay:10.37,2013-10-26 19:21:00,
2013-10-26 14:23:00,48.9,24.4,28.79,West,270,12.7,12.7,38,0.00,CLR,,0.00,WeatherDisplay:10.37,2013-10-26 19:23:00,
2013-10-26 14:24:00,49.0,24.5,28.79,NW,309,8.0,14.0,38,0.00,CLR,,0.00,WeatherDisplay:10.37,2013-10-26 19:24:00,
2013-10-26 14:25:00,48.9,24.4,28.79,NW,315,12.7,12.7,38,0.00,CLR,,0.00,WeatherDisplay:10.37,2013-10-26 19:25:00,
2013-10-26 14:26:00,49.1,23.9,28.79,North,0,15.0,15.0,37,0.00,CLR,,0.00,WeatherDisplay:10.37,2013-10-26 19:26:00,
2013-10-26 14:27:00,48.7,23.6,28.79,NW,315,12.7,14.3,37,0.00,CLR,,0.00,WeatherDisplay:10.37,2013-10-26 19:27:00,
2013-10-26 14:28:00,48.7,23.6,28.79,NW,315,20.7,20.7,37,0.00,CLR,,0.00,WeatherDisplay:10.37,2013-10-26 19:28:00,
2013-10-26 14:30:00,49.3,24.1,28.79,NNW,338,12.7,12.7,37,0.00,CLR,,0.00,WeatherDisplay:10.37,2013-10-26 19:30:00,
2013-10-26 14:31:00,49.3,24.1,28.79,NNW,338,9.2,9.2,37,0.00,CLR,,0.00,WeatherDisplay:10.37,2013-10-26 19:31:00,
2013-10-26 14:32:00,49.6,24.4,28.79,WNW,292,9.2,9.2,37,0.00,CLR,,0.00,WeatherDisplay:10.37,2013-10-26 19:32:00,
2013-10-26 14:33:00,49.6,24.4,28.79,North,0,10.4,10.4,37,0.00,CLR,,0.00,WeatherDisplay:10.37,2013-10-26 19:33:00,
2013-10-26 14:35:00,49.8,24.6,28.79,WNW,292,15.4,15.4,37,0.00,CLR,,0.00,WeatherDisplay:10.37,2013-10-26 19:35:00,
2013-10-26 14:36:00,49.8,24.6,28.79,WNW,292,15.0,15.0,37,0.00,CLR,,0.00,WeatherDisplay:10.37,2013-10-26 19:36:00,
2013-10-26 14:37:00,49.6,24.4,28.79,NW,315,15.0,15.0,37,0.00,CLR,,0.00,WeatherDisplay:10.37,2013-10-26 19:37:00,
2013-10-26 14:38:00,49.6,24.4,28.79,NW,315,15.0,15.0,37,0.00,CLR,,0.00,WeatherDisplay:10.37,2013-10-26 19:38:00,
2013-10-26 14:39:00,49.6,24.4,28.79,NW,315,12.7,12.7,37,0.00,CLR,,0.00,WeatherDisplay:10.37,2013-10-26 19:39:00,
2013-10-26 14:40:00,49.8,24.6,28.79,NNE,22,13.8,13.8,37,0.00,CLR,,0.00,WeatherDisplay:10.37,2013-10-26 19:40:00,
2013-10-26 14:41:00,49.6,24.4,28.79,NNE,22,15.0,15.0,37,0.00,CLR,,0.00,WeatherDisplay:10.37,2013-10-26 19:41:00,
2013-10-26 14:42:00,49.5,24.2,28.79,NNW,338,17.3,17.3,37,0.00,CLR,,0.00,WeatherDisplay:10.37,2013-10-26 19:42:00,
2013-10-26 14:43:00,49.3,24.1,28.79,NNW,338,17.3,17.3,37,0.00,CLR,,0.00,WeatherDisplay:10.37,2013-10-26 19:43:00,
2013-10-26 14:44:00,48.9,23.8,28.79,NW,315,15.0,15.0,37,0.00,CLR,,0.00,WeatherDisplay:10.37,2013-10-26 19:44:00,
2013-10-26 14:46:00,48.7,23.6,28.79,NNW,338,12.8,12.8,37,0.00,CLR,,0.00,WeatherDisplay:10.37,2013-10-26 19:46:00,
2013-10-26 14:47:00,48.2,23.1,28.79,NW,315,16.1,16.1,37,0.00,CLR,,0.00,WeatherDisplay:10.37,2013-10-26 19:47:00,
2013-10-26 14:48:00,48.2,23.1,28.79,NW,315,16.1,16.1,37,0.00,CLR,,0.00,WeatherDisplay:10.37,2013-10-26 19:48:00,
2013-10-26 14:49:00,48.0,23.0,28.79,North,0,12.8,12.8,37,0.00,CLR,,0.00,WeatherDisplay:10.37,2013-10-26 19:49:00,
2013-10-26 14:51:00,47.7,22.6,28.79,WNW,292,15.0,15.0,37,0.00,CLR,,0.00,WeatherDisplay:10.37,2013-10-26 19:51:00,
2013-10-26 14:52:00,47.7,22.6,28.79,NW,315,13.8,13.8,37,0.00,CLR,,0.00,WeatherDisplay:10.37,2013-10-26 19:52:00,
2013-10-26 14:53:00,47.7,22.6,28.79,NNW,338,13.8,13.8,37,0.00,CLR,,0.00,WeatherDisplay:10.37,2013-10-26 19:53:00,
2013-10-26 14:54:00,47.7,23.3,28.79,NNW,338,12.7,12.7,38,0.00,CLR,,0.00,WeatherDisplay:10.37,2013-10-26 19:54:00,
2013-10-26 14:56:00,47.7,22.6,28.79,NNW,338,15.0,15.0,37,0.00,CLR,,0.00,WeatherDisplay:10.37,2013-10-26 19:56:00,
2013-10-26 14:58:00,48.2,23.1,28.79,West,270,13.8,13.8,37,0.00,CLR,,0.00,WeatherDisplay:10.37,2013-10-26 19:58:00,
2013-10-26 15:00:00,48.7,23.6,28.79,NW,315,5.8,5.8,37,0.00,CLR,,0.00,WeatherDisplay:10.37,2013-10-26 20:00:00,
2013-10-26 15:01:00,49.5,24.2,28.79,WNW,292,9.2,9.2,37,0.00,CLR,,0.00,WeatherDisplay:10.37,2013-10-26 20:01:00,
2013-10-26 15:03:00,50.0,24.7,28.79,NW,315,11.5,11.5,37,0.00,CLR,,0.00,WeatherDisplay:10.37,2013-10-26 20:03:00,
2013-10-26 15:04:00,50.0,24.7,28.79,West,270,8.1,8.1,37,0.00,CLR,,0.00,WeatherDisplay:10.37,2013-10-26 20:04:00,
2013-10-26 15:06:00,50.4,24.4,28.79,NW,315,17.6,17.6,36,0.00,CLR,,0.00,WeatherDisplay:10.37,2013-10-26 20:06:00,
2013-10-26 15:07:00,50.2,24.2,28.79,WNW,292,17.3,17.3,36,0.00,CLR,,0.00,WeatherDisplay:10.37,2013-10-26 20:07:00,
2013-10-26 15:09:00,49.8,23.9,28.79,NW,315,15.0,15.0,36,0.00,CLR,,0.00,WeatherDisplay:10.37,2013-10-26 20:09:00,
2013-10-26 15:11:00,50.0,24.1,28.76,NW,315,10.4,10.4,36,0.00,CLR,,0.00,WeatherDisplay:10.37,2013-10-26 20:11:00,
2013-10-26 15:12:00,49.8,24.6,28.76,WNW,292,10.4,10.4,37,0.00,CLR,,0.00,WeatherDisplay:10.37,2013-10-26 20:12:00,
2013-10-26 15:14:00,49.5,23.6,28.76,WNW,292,16.1,16.1,36,0.00,CLR,,0.00,WeatherDisplay:10.37,2013-10-26 20:14:00,
2013-10-26 15:16:00,49.1,23.3,28.76,WNW,292,11.5,11.5,36,0.00,CLR,,0.00,WeatherDisplay:10.37,2013-10-26 20:16:00,
2013-10-26 15:17:00,49.3,24.1,28.76,NW,315,11.5,11.5,37,0.00,CLR,,0.00,WeatherDisplay:10.37,2013-10-26 20:17:00,
2013-10-26 15:19:00,48.7,22.9,28.76,WNW,292,10.4,10.4,36,0.00,CLR,,0.00,WeatherDisplay:10.37,2013-10-26 20:19:00,
2013-10-26 15:20:00,48.7,23.6,28.76,NW,315,12.8,12.8,37,0.00,CLR,,0.00,WeatherDisplay:10.37,2013-10-26 20:20:00,
2013-10-26 15:22:00,48.4,22.6,28.76,NW,315,19.6,19.6,36,0.00,CLR,,0.00,WeatherDisplay:10.37,2013-10-26 20:22:00,
2013-10-26 15:23:00,48.6,23.4,28.76,NNW,338,10.4,10.4,37,0.00,CLR,,0.00,WeatherDisplay:10.37,2013-10-26 20:23:00,
2013-10-26 15:24:00,48.6,23.4,28.79,NW,315,7.4,7.4,37,0.00,CLR,,0.00,WeatherDisplay:10.37,2013-10-26 20:24:00,
2013-10-26 15:25:00,48.6,23.4,28.79,WNW,292,12.1,12.1,37,0.00,CLR,,0.00,WeatherDisplay:10.37,2013-10-26 20:25:00,
2013-10-26 15:27:00,48.4,23.3,28.79,NW,315,13.8,13.8,37,0.00,CLR,,0.00,WeatherDisplay:10.37,2013-10-26 20:27:00,
2013-10-26 15:29:00,48.2,23.1,28.79,NNW,338,11.5,11.5,37,0.00,CLR,,0.00,WeatherDisplay:10.37,2013-10-26 20:29:00,
2013-10-26 15:30:00,48.2,23.1,28.79,WNW,292,13.2,13.2,37,0.00,CLR,,0.00,WeatherDisplay:10.37,2013-10-26 20:30:00,
2013-10-26 15:32:00,48.2,23.1,28.79,NW,315,8.1,8.1,37,0.00,CLR,,0.00,WeatherDisplay:10.37,2013-10-26 20:32:00,
2013-10-26 15:33:00,48.2,23.1,28.79,NNW,338,8.1,8.1,37,0.00,CLR,,0.00,WeatherDisplay:10.37,2013-10-26 20:33:00,
2013-10-26 15:34:00,48.2,23.1,28.79,NW,315,8.1,8.1,37,0.00,CLR,,0.00,WeatherDisplay:10.37,2013-10-26 20:34:00,
2013-10-26 15:35:00,48.2,23.1,28.79,WNW,292,11.4,11.4,37,0.00,CLR,,0.00,WeatherDisplay:10.37,2013-10-26 20:35:00,
2013-10-26 15:36:00,48.0,23.0,28.79,NW,315,13.8,13.8,37,0.00,CLR,,0.00,WeatherDisplay:10.37,2013-10-26 20:36:00,
2013-10-26 15:37:00,47.8,23.4,28.79,NNW,338,11.5,11.5,38,0.00,CLR,,0.00,WeatherDisplay:10.37,2013-10-26 20:37:00,
2013-10-26 15:38:00,47.8,23.4,28.79,NNW,338,11.5,11.5,38,0.00,CLR,,0.00,WeatherDisplay:10.37,2013-10-26 20:38:00,
2013-10-26 15:39:00,47.8,23.4,28.79,NW,315,9.2,9.2,38,0.00,CLR,,0.00,WeatherDisplay:10.37,2013-10-26 20:39:00,
2013-10-26 15:40:00,48.0,23.6,28.79,NW,315,12.5,12.5,38,0.00,CLR,,0.00,WeatherDisplay:10.37,2013-10-26 20:40:00,
2013-10-26 15:41:00,48.0,23.6,28.79,NNW,338,12.7,12.7,38,0.00,CLR,,0.00,WeatherDisplay:10.37,2013-10-26 20:41:00,
2013-10-26 15:42:00,48.4,23.3,28.79,NW,315,11.5,11.5,37,0.00,CLR,,0.00,WeatherDisplay:10.37,2013-10-26 20:42:00,
2013-10-26 15:44:00,48.4,23.3,28.79,NW,315,9.2,9.2,37,0.00,CLR,,0.00,WeatherDisplay:10.37,2013-10-26 20:44:00,
2013-10-26 15:45:00,48.9,23.8,28.79,NW,315,9.2,9.2,37,0.00,CLR,,0.00,WeatherDisplay:10.37,2013-10-26 20:45:00,
2013-10-26 15:46:00,48.9,23.8,28.79,West,270,9.2,9.2,37,0.00,CLR,,0.00,WeatherDisplay:10.37,2013-10-26 20:46:00,
2013-10-26 15:48:00,49.3,24.1,28.79,North,0,13.8,13.8,37,0.00,CLR,,0.00,WeatherDisplay:10.37,2013-10-26 20:48:00,
2013-10-26 15:49:00,49.6,24.4,28.79,NNW,338,10.4,10.4,37,0.00,CLR,,0.00,WeatherDisplay:10.37,2013-10-26 20:49:00,
2013-10-26 15:51:00,49.1,23.9,28.79,NW,315,12.7,12.7,37,0.00,CLR,,0.00,WeatherDisplay:10.37,2013-10-26 20:51:00,
2013-10-26 15:52:00,48.9,23.8,28.79,WNW,292,10.4,10.4,37,0.00,CLR,,0.00,WeatherDisplay:10.37,2013-10-26 20:52:00,
2013-10-26 15:53:00,48.9,23.8,28.79,NW,315,10.4,10.4,37,0.00,CLR,,0.00,WeatherDisplay:10.37,2013-10-26 20:53:00,
2013-10-26 15:54:00,48.7,23.6,28.79,NW,315,13.8,13.8,37,0.00,CLR,,0.00,WeatherDisplay:10.37,2013-10-26 20:54:00,
2013-10-26 15:57:00,48.4,23.3,28.82,NW,315,6.9,6.9,37,0.00,CLR,,0.00,WeatherDisplay:10.37,2013-10-26 20:57:00,
2013-10-26 15:58:00,48.2,23.1,28.82,NW,315,13.8,13.8,37,0.00,CLR,,0.00,WeatherDisplay:10.37,2013-10-26 20:58:00,
2013-10-26 15:59:00,47.8,23.4,28.82,NW,315,13.8,13.8,38,0.00,CLR,,0.00,WeatherDisplay:10.37,2013-10-26 20:59:00,
2013-10-26 16:00:00,47.8,23.4,28.82,WSW,248,10.4,10.4,38,0.00,CLR,,0.00,WeatherDisplay:10.37,2013-10-26 21:00:00,
2013-10-26 16:02:00,47.8,23.4,28.82,NNW,338,11.5,11.5,38,0.00,CLR,,0.00,WeatherDisplay:10.37,2013-10-26 21:02:00,
2013-10-26 16:03:00,47.7,23.3,28.82,North,0,10.4,10.4,38,0.00,CLR,,0.00,WeatherDisplay:10.37,2013-10-26 21:03:00,
2013-10-26 16:04:00,47.5,23.1,28.82,NW,315,10.7,10.7,38,0.00,CLR,,0.00,WeatherDisplay:10.37,2013-10-26 21:04:00,
2013-10-26 16:05:00,47.5,23.1,28.82,North,0,10.4,10.4,38,0.00,CLR,,0.00,WeatherDisplay:10.37,2013-10-26 21:05:00,
2013-10-26 16:07:00,47.3,22.9,28.82,NW,315,10.7,10.7,38,0.00,CLR,,0.00,WeatherDisplay:10.37,2013-10-26 21:07:00,
2013-10-26 16:08:00,47.3,22.9,28.82,NW,315,10.4,10.4,38,0.00,CLR,,0.00,WeatherDisplay:10.37,2013-10-26 21:08:00,
2013-10-26 16:10:00,47.5,23.1,28.82,WNW,292,8.1,8.1,38,0.00,CLR,,0.00,WeatherDisplay:10.37,2013-10-26 21:10:00,
2013-10-26 16:11:00,47.7,23.3,28.82,NNE,22,8.1,8.1,38,0.00,CLR,,0.00,WeatherDisplay:10.37,2013-10-26 21:11:00,
2013-10-26 16:13:00,48.2,23.1,28.82,NW,315,10.4,10.4,37,0.00,CLR,,0.00,WeatherDisplay:10.37,2013-10-26 21:13:00,
2013-10-26 16:15:00,48.0,23.6,28.82,WNW,292,5.8,5.8,38,0.00,CLR,,0.00,WeatherDisplay:10.37,2013-10-26 21:15:00,
2013-10-26 16:17:00,47.7,23.3,28.82,NE,45,11.5,11.5,38,0.00,CLR,,0.00,WeatherDisplay:10.37,2013-10-26 21:17:00,
2013-10-26 16:18:00,47.5,23.1,28.82,NW,315,10.4,10.4,38,0.00,CLR,,0.00,WeatherDisplay:10.37,2013-10-26 21:18:00,
2013-10-26 16:19:00,47.5,23.1,28.82,NW,315,11.5,11.5,38,0.00,CLR,,0.00,WeatherDisplay:10.37,2013-10-26 21:19:00,
2013-10-26 16:20:00,47.3,22.9,28.82,NW,315,11.5,11.5,38,0.00,CLR,,0.00,WeatherDisplay:10.37,2013-10-26 21:20:00,
2013-10-26 16:22:00,47.3,22.9,28.82,NW,315,10.2,10.2,38,0.00,CLR,,0.00,WeatherDisplay:10.37,2013-10-26 21:22:00,
2013-10-26 16:24:00,47.1,22.8,28.82,NNW,338,12.7,12.7,38,0.00,CLR,,0.00,WeatherDisplay:10.37,2013-10-26 21:24:00,
2013-10-26 16:25:00,47.1,22.8,28.82,WNW,292,12.7,12.7,38,0.00,CLR,,0.00,WeatherDisplay:10.37,2013-10-26 21:25:00,
2013-10-26 16:27:00,47.1,22.8,28.82,NNW,338,8.7,8.7,38,0.00,CLR,,0.00,WeatherDisplay:10.37,2013-10-26 21:27:00,
2013-10-26 16:29:00,46.9,22.6,28.82,NNW,338,12.7,12.7,38,0.00,CLR,,0.00,WeatherDisplay:10.37,2013-10-26 21:29:00,
2013-10-26 16:30:00,46.9,22.6,28.82,NNE,22,12.7,12.7,38,0.00,CLR,,0.00,WeatherDisplay:10.37,2013-10-26 21:30:00,
2013-10-26 16:32:00,46.8,22.5,28.82,NW,315,12.8,12.8,38,0.00,CLR,,0.00,WeatherDisplay:10.37,2013-10-26 21:32:00,
2013-10-26 16:34:00,46.6,22.3,28.82,North,0,10.4,10.4,38,0.00,CLR,,0.00,WeatherDisplay:10.37,2013-10-26 21:34:00,
2013-10-26 16:35:00,46.6,22.3,28.82,NNW,338,10.4,10.4,38,0.00,CLR,,0.00,WeatherDisplay:10.37,2013-10-26 21:35:00,
2013-10-26 16:38:00,46.6,22.3,28.82,North,0,6.9,6.9,38,0.00,CLR,,0.00,WeatherDisplay:10.37,2013-10-26 21:38:00,
2013-10-26 16:39:00,46.6,22.3,28.82,NNW,338,9.2,9.2,38,0.00,CLR,,0.00,WeatherDisplay:10.37,2013-10-26 21:39:00,
2013-10-26 16:40:00,46.6,22.3,28.82,WNW,292,9.2,9.2,38,0.00,CLR,,0.00,WeatherDisplay:10.37,2013-10-26 21:40:00,
2013-10-26 16:41:00,46.6,22.3,28.82,WNW,292,12.7,12.7,38,0.00,CLR,,0.00,WeatherDisplay:10.37,2013-10-26 21:41:00,
2013-10-26 16:43:00,46.6,22.3,28.82,NNW,338,10.4,10.4,38,0.00,CLR,,0.00,WeatherDisplay:10.37,2013-10-26 21:43:00,
2013-10-26 16:44:00,46.6,22.3,28.82,NW,315,12.5,12.5,38,0.00,CLR,,0.00,WeatherDisplay:10.37,2013-10-26 21:44:00,
2013-10-26 16:45:00,46.6,22.3,28.82,North,0,12.7,12.7,38,0.00,CLR,,0.00,WeatherDisplay:10.37,2013-10-26 21:45:00,
2013-10-26 16:46:00,46.6,22.3,28.82,WNW,292,10.4,10.4,38,0.00,CLR,,0.00,WeatherDisplay:10.37,2013-10-26 21:46:00,
2013-10-26 16:47:00,46.6,22.3,28.82,NW,315,8.1,8.1,38,0.00,CLR,,0.00,WeatherDisplay:10.37,2013-10-26 21:47:00,
2013-10-26 16:48:00,46.6,22.3,28.82,NW,315,6.9,6.9,38,0.00,CLR,,0.00,WeatherDisplay:10.37,2013-10-26 21:48:00,
2013-10-26 16:49:00,46.6,22.3,28.82,North,0,8.7,8.7,38,0.00,CLR,,0.00,WeatherDisplay:10.37,2013-10-26 21:49:00,
2013-10-26 16:50:00,46.6,22.3,28.82,NNW,338,9.2,9.2,38,0.00,CLR,,0.00,WeatherDisplay:10.37,2013-10-26 21:50:00,
2013-10-26 16:51:00,46.6,22.3,28.82,WSW,248,8.1,8.1,38,0.00,CLR,,0.00,WeatherDisplay:10.37,2013-10-26 21:51:00,
2013-10-26 16:52:00,46.8,22.5,28.82,NNW,338,7.6,7.6,38,0.00,CLR,,0.00,WeatherDisplay:10.37,2013-10-26 21:52:00,
2013-10-26 16:53:00,46.6,22.3,28.82,NW,315,8.1,8.1,38,0.00,CLR,,0.00,WeatherDisplay:10.37,2013-10-26 21:53:00,
2013-10-26 16:54:00,46.6,22.3,28.85,NW,315,12.8,12.8,38,0.00,CLR,,0.00,WeatherDisplay:10.37,2013-10-26 21:54:00,
2013-10-26 16:55:00,46.6,22.3,28.85,NW,315,13.7,13.7,38,0.00,CLR,,0.00,WeatherDisplay:10.37,2013-10-26 21:55:00,
2013-10-26 16:56:00,46.6,22.3,28.85,NW,315,11.5,11.5,38,0.00,CLR,,0.00,WeatherDisplay:10.37,2013-10-26 21:56:00,
2013-10-26 16:57:00,46.6,22.3,28.85,NW,315,11.5,11.5,38,0.00,CLR,,0.00,WeatherDisplay:10.37,2013-10-26 21:57:00,
2013-10-26 16:58:00,46.6,22.3,28.85,WNW,292,8.1,9.2,38,0.00,CLR,,0.00,WeatherDisplay:10.37,2013-10-26 21:58:00,
2013-10-26 16:59:00,46.4,22.1,28.85,NW,315,10.4,10.4,38,0.00,CLR,,0.00,WeatherDisplay:10.37,2013-10-26 21:59:00,
2013-10-26 17:00:00,46.4,22.1,28.85,WNW,292,10.4,10.4,38,0.00,CLR,,0.00,WeatherDisplay:10.37,2013-10-26 22:00:00,
2013-10-26 17:02:00,46.4,22.1,28.85,WNW,292,10.9,10.9,38,0.00,CLR,,0.00,WeatherDisplay:10.37,2013-10-26 22:02:00,
2013-10-26 17:03:00,46.4,22.1,28.85,WNW,292,11.5,11.5,38,0.00,CLR,,0.00,WeatherDisplay:10.37,2013-10-26 22:03:00,
2013-10-26 17:04:00,46.4,22.1,28.85,NW,309,7.0,14.0,38,0.00,CLR,,0.00,WeatherDisplay:10.37,2013-10-26 22:04:00,
2013-10-26 17:05:00,46.4,22.1,28.85,WNW,292,6.2,6.2,38,0.00,CLR,,0.00,WeatherDisplay:10.37,2013-10-26 22:05:00,
2013-10-26 17:06:00,46.2,22.0,28.85,North,0,9.2,9.2,38,0.00,CLR,,0.00,WeatherDisplay:10.37,2013-10-26 22:06:00,
2013-10-26 17:07:00,46.2,22.0,28.85,NW,315,9.2,9.2,38,0.00,CLR,,0.00,WeatherDisplay:10.37,2013-10-26 22:07:00,
2013-10-26 17:08:00,46.2,22.0,28.85,NW,315,6.9,6.9,38,0.00,CLR,,0.00,WeatherDisplay:10.37,2013-10-26 22:08:00,
2013-10-26 17:09:00,46.2,22.0,28.85,NNW,338,6.9,6.9,38,0.00,CLR,,0.00,WeatherDisplay:10.37,2013-10-26 22:09:00,
2013-10-26 17:10:00,46.2,22.0,28.85,NNW,338,7.8,7.8,38,0.00,CLR,,0.00,WeatherDisplay:10.37,2013-10-26 22:10:00,
2013-10-26 17:11:00,46.2,22.0,28.85,North,0,8.5,8.5,38,0.00,CLR,,0.00,WeatherDisplay:10.37,2013-10-26 22:11:00,
2013-10-26 17:12:00,46.2,22.0,28.85,North,0,10.4,10.4,38,0.00,CLR,,0.00,WeatherDisplay:10.37,2013-10-26 22:12:00,
2013-10-26 17:13:00,46.2,22.0,28.85,WNW,292,8.1,8.1,38,0.00,CLR,,0.00,WeatherDisplay:10.37,2013-10-26 22:13:00,
2013-10-26 17:14:00,46.2,22.0,28.85,North,0,6.9,6.9,38,0.00,CLR,,0.00,WeatherDisplay:10.37,2013-10-26 22:14:00,
2013-10-26 17:15:00,46.2,22.0,28.85,WNW,292,8.1,8.1,38,0.00,CLR,,0.00,WeatherDisplay:10.37,2013-10-26 22:15:00,
2013-10-26 17:16:00,46.0,21.8,28.85,West,270,8.1,8.5,38,0.00,CLR,,0.00,WeatherDisplay:10.37,2013-10-26 22:16:00,
2013-10-26 17:18:00,46.0,21.8,28.85,NNW,338,8.1,8.1,38,0.00,CLR,,0.00,WeatherDisplay:10.37,2013-10-26 22:18:00,
2013-10-26 17:19:00,46.0,21.8,28.85,North,0,11.8,11.8,38,0.00,CLR,,0.00,WeatherDisplay:10.37,2013-10-26 22:19:00,
2013-10-26 17:20:00,46.0,21.8,28.85,South,180,12.7,12.7,38,0.00,CLR,,0.00,WeatherDisplay:10.37,2013-10-26 22:20:00,
2013-10-26 17:22:00,46.0,21.8,28.85,NW,315,10.4,10.4,38,0.00,CLR,,0.00,WeatherDisplay:10.37,2013-10-26 22:22:00,
2013-10-26 17:23:00,46.0,21.8,28.85,WNW,292,10.4,10.4,38,0.00,CLR,,0.00,WeatherDisplay:10.37,2013-10-26 22:23:00,
2013-10-26 17:24:00,46.0,22.4,28.85,NW,315,7.4,7.4,39,0.00,CLR,,0.00,WeatherDisplay:10.37,2013-10-26 22:24:00,
2013-10-26 17:25:00,46.0,22.4,28.85,NW,315,6.9,6.9,39,0.00,CLR,,0.00,WeatherDisplay:10.37,2013-10-26 22:25:00,
2013-10-26 17:27:00,45.9,22.3,28.85,NW,315,5.8,5.8,39,0.00,CLR,,0.00,WeatherDisplay:10.37,2013-10-26 22:27:00,
2013-10-26 17:29:00,45.9,22.3,28.85,WNW,292,9.2,9.2,39,0.00,CLR,,0.00,WeatherDisplay:10.37,2013-10-26 22:29:00,
2013-10-26 17:30:00,45.9,22.3,28.85,West,270,5.8,5.8,39,0.00,CLR,,0.00,WeatherDisplay:10.37,2013-10-26 22:30:00,
2013-10-26 17:32:00,45.9,22.3,28.85,NNW,338,4.6,4.6,39,0.00,CLR,,0.00,WeatherDisplay:10.37,2013-10-26 22:32:00,
2013-10-26 17:34:00,45.7,22.1,28.85,WNW,292,9.2,9.2,39,0.00,CLR,,0.00,WeatherDisplay:10.37,2013-10-26 22:34:00,
2013-10-26 17:35:00,45.7,22.1,28.85,NW,315,9.2,9.2,39,0.00,CLR,,0.00,WeatherDisplay:10.37,2013-10-26 22:35:00,
2013-10-26 17:36:00,45.7,22.1,28.85,NNW,338,6.9,6.9,39,0.00,CLR,,0.00,WeatherDisplay:10.37,2013-10-26 22:36:00,
2013-10-26 17:37:00,45.7,22.1,28.85,NNW,338,5.9,5.9,39,0.00,CLR,,0.00,WeatherDisplay:10.37,2013-10-26 22:37:00,
2013-10-26 17:40:00,45.7,22.1,28.85,NNW,338,5.8,5.8,39,0.00,CLR,,0.00,WeatherDisplay:10.37,2013-10-26 22:40:00,
2013-10-26 17:42:00,45.7,22.1,28.85,NNW,338,5.8,5.8,39,0.00,CLR,,0.00,WeatherDisplay:10.37,2013-10-26 22:42:00,
2013-10-26 17:43:00,45.5,21.9,28.85,WNW,292,5.8,5.8,39,0.00,CLR,,0.00,WeatherDisplay:10.37,2013-10-26 22:43:00,
2013-10-26 17:45:00,45.5,21.9,28.85,North,0,6.9,6.9,39,0.00,CLR,,0.00,WeatherDisplay:10.37,2013-10-26 22:45:00,
2013-10-26 17:46:00,45.5,21.9,28.85,WNW,292,6.9,6.9,39,0.00,CLR,,0.00,WeatherDisplay:10.37,2013-10-26 22:46:00,
2013-10-26 17:47:00,45.5,22.5,28.85,NW,315,4.6,4.6,40,0.00,CLR,,0.00,WeatherDisplay:10.37,2013-10-26 22:47:00,
2013-10-26 17:48:00,45.5,22.5,28.85,WNW,292,5.9,5.9,40,0.00,CLR,,0.00,WeatherDisplay:10.37,2013-10-26 22:48:00,
2013-10-26 17:50:00,45.3,21.8,28.85,WNW,292,8.1,8.1,39,0.00,CLR,,0.00,WeatherDisplay:10.37,2013-10-26 22:50:00,
2013-10-26 17:51:00,45.3,21.8,28.85,WNW,292,11.5,11.5,39,0.00,CLR,,0.00,WeatherDisplay:10.37,2013-10-26 22:51:00,
2013-10-26 17:52:00,45.3,21.8,28.85,WNW,292,6.9,6.9,39,0.00,CLR,,0.00,WeatherDisplay:10.37,2013-10-26 22:52:00,
2013-10-26 17:53:00,45.3,21.8,28.85,NW,315,6.2,6.2,39,0.00,CLR,,0.00,WeatherDisplay:10.37,2013-10-26 22:53:00,
2013-10-26 17:55:00,45.3,21.8,28.85,NW,315,8.1,8.1,39,0.00,CLR,,0.00,WeatherDisplay:10.37,2013-10-26 22:55:00,
2013-10-26 17:56:00,45.3,21.8,28.85,WNW,292,8.1,8.1,39,0.00,CLR,,0.00,WeatherDisplay:10.37,2013-10-26 22:56:00,
2013-10-26 17:57:00,45.3,21.8,28.85,NW,315,7.1,7.1,39,0.00,CLR,,0.00,WeatherDisplay:10.37,2013-10-26 22:57:00,
2013-10-26 17:58:00,45.3,21.8,28.85,WNW,292,8.1,8.1,39,0.00,CLR,,0.00,WeatherDisplay:10.37,2013-10-26 22:58:00,
2013-10-26 17:59:00,45.3,21.8,28.85,WNW,292,5.6,5.6,39,0.00,CLR,,0.00,WeatherDisplay:10.37,2013-10-26 22:59:00,
2013-10-26 18:00:00,45.3,21.8,28.85,North,0,5.8,5.8,39,0.00,CLR,,0.00,WeatherDisplay:10.37,2013-10-26 23:00:00,
2013-10-26 18:01:00,45.3,21.8,28.85,North,0,4.6,4.6,39,0.00,CLR,,0.00,WeatherDisplay:10.37,2013-10-26 23:01:00,
2013-10-26 18:02:00,45.1,22.2,28.85,WNW,292,3.5,3.5,40,0.00,CLR,,0.00,WeatherDisplay:10.37,2013-10-26 23:02:00,
2013-10-26 18:03:00,45.1,22.2,28.85,NNW,338,4.6,4.6,40,0.00,CLR,,0.00,WeatherDisplay:10.37,2013-10-26 23:03:00,
2013-10-26 18:04:00,45.1,22.2,28.85,NW,316,2.0,5.0,40,0.00,CLR,,0.00,WeatherDisplay:10.37,2013-10-26 23:04:00,
2013-10-26 18:05:00,45.1,22.2,28.85,WNW,292,6.0,6.0,40,0.00,CLR,,0.00,WeatherDisplay:10.37,2013-10-26 23:05:00,
2013-10-26 18:06:00,45.1,22.2,28.85,NNW,338,5.8,5.8,40,0.00,CLR,,0.00,WeatherDisplay:10.37,2013-10-26 23:06:00,
2013-10-26 18:07:00,45.1,22.2,28.85,NNW,338,5.8,5.8,40,0.00,CLR,,0.00,WeatherDisplay:10.37,2013-10-26 23:07:00,
2013-10-26 18:08:00,45.0,22.1,28.85,NNW,338,3.5,3.5,40,0.00,CLR,,0.00,WeatherDisplay:10.37,2013-10-26 23:08:00,
2013-10-26 18:09:00,45.0,22.1,28.85,WNW,292,3.6,3.6,40,0.00,CLR,,0.00,WeatherDisplay:10.37,2013-10-26 23:09:00,
2013-10-26 18:10:00,45.0,22.1,28.85,NW,315,4.6,4.6,40,0.00,CLR,,0.00,WeatherDisplay:10.37,2013-10-26 23:10:00,
2013-10-26 18:11:00,44.8,21.9,28.85,NW,315,4.6,4.6,40,0.00,CLR,,0.00,WeatherDisplay:10.37,2013-10-26 23:11:00,
2013-10-26 18:12:00,44.8,21.9,28.85,NW,315,9.2,9.2,40,0.00,CLR,,0.00,WeatherDisplay:10.37,2013-10-26 23:12:00,
2013-10-26 18:13:00,44.8,21.9,28.85,NNW,338,10.4,10.4,40,0.00,CLR,,0.00,WeatherDisplay:10.37,2013-10-26 23:13:00,
2013-10-26 18:14:00,44.8,21.9,28.85,NNW,338,10.4,10.4,40,0.00,CLR,,0.00,WeatherDisplay:10.37,2013-10-26 23:14:00,
2013-10-26 18:15:00,44.8,21.9,28.85,WNW,292,4.9,4.9,40,0.00,CLR,,0.00,WeatherDisplay:10.37,2013-10-26 23:15:00,
2013-10-26 18:16:00,44.8,21.9,28.85,NNW,338,4.7,4.9,40,0.00,CLR,,0.00,WeatherDisplay:10.37,2013-10-26 23:16:00,
2013-10-26 18:17:00,44.8,21.9,28.85,WNW,292,5.8,5.8,40,0.00,CLR,,0.00,WeatherDisplay:10.37,2013-10-26 23:17:00,
2013-10-26 18:18:00,44.8,21.9,28.85,NNW,338,6.9,6.9,40,0.00,CLR,,0.00,WeatherDisplay:10.37,2013-10-26 23:18:00,
2013-10-26 18:20:00,44.8,21.9,28.85,NNW,338,4.6,4.6,40,0.00,CLR,,0.00,WeatherDisplay:10.37,2013-10-26 23:20:00,
2013-10-26 18:21:00,44.8,21.9,28.85,NW,315,5.8,5.8,40,0.00,CLR,,0.00,WeatherDisplay:10.37,2013-10-26 23:21:00,
2013-10-26 18:22:00,44.6,21.7,28.85,WNW,292,7.6,7.6,40,0.00,CLR,,0.00,WeatherDisplay:10.37,2013-10-26 23:22:00,
2013-10-26 18:23:00,44.8,21.9,28.85,NW,315,9.8,9.8,40,0.00,CLR,,0.00,WeatherDisplay:10.37,2013-10-26 23:23:00,
2013-10-26 18:25:00,44.8,21.3,28.85,WNW,292,5.8,5.8,39,0.00,CLR,,0.00,WeatherDisplay:10.37,2013-10-26 23:25:00,
2013-10-26 18:26:00,44.8,21.9,28.85,West,270,3.5,3.6,40,0.00,CLR,,0.00,WeatherDisplay:10.37,2013-10-26 23:26:00,
2013-10-26 18:27:00,44.6,21.7,28.85,West,270,5.8,5.8,40,0.00,CLR,,0.00,WeatherDisplay:10.37,2013-10-26 23:27:00,
2013-10-26 18:28:00,44.6,21.7,28.85,NW,315,3.8,3.8,40,0.00,CLR,,0.00,WeatherDisplay:10.37,2013-10-26 23:28:00,
2013-10-26 18:29:00,44.6,21.7,28.85,North,0,3.5,3.5,40,0.00,CLR,,0.00,WeatherDisplay:10.37,2013-10-26 23:29:00,
2013-10-26 18:30:00,44.6,21.7,28.85,West,270,3.8,3.8,40,0.00,CLR,,0.00,WeatherDisplay:10.37,2013-10-26 23:30:00,
2013-10-26 18:31:00,44.6,21.7,28.85,NNW,338,3.5,3.5,40,0.00,CLR,,0.00,WeatherDisplay:10.37,2013-10-26 23:31:00,
2013-10-26 18:32:00,44.6,21.7,28.85,WNW,292,3.5,3.5,40,0.00,CLR,,0.00,WeatherDisplay:10.37,2013-10-26 23:32:00,
2013-10-26 18:33:00,44.4,21.6,28.85,WNW,292,10.4,10.4,40,0.00,CLR,,0.00,WeatherDisplay:10.37,2013-10-26 23:33:00,
2013-10-26 18:34:00,44.6,21.7,28.85,NW,315,8.1,8.1,40,0.00,CLR,,0.00,WeatherDisplay:10.37,2013-10-26 23:34:00,
2013-10-26 18:35:00,44.6,21.7,28.85,NW,315,3.5,3.5,40,0.00,CLR,,0.00,WeatherDisplay:10.37,2013-10-26 23:35:00,
2013-10-26 18:36:00,44.4,21.6,28.85,NW,315,3.5,3.5,40,0.00,CLR,,0.00,WeatherDisplay:10.37,2013-10-26 23:36:00,
2013-10-26 18:37:00,44.4,22.2,28.85,WNW,292,4.6,4.6,41,0.00,CLR,,0.00,WeatherDisplay:10.37,2013-10-26 23:37:00,
2013-10-26 18:38:00,44.4,22.2,28.85,WNW,292,4.6,4.6,41,0.00,CLR,,0.00,WeatherDisplay:10.37,2013-10-26 23:38:00,
2013-10-26 18:39:00,44.4,22.2,28.85,WNW,292,5.8,5.8,41,0.00,CLR,,0.00,WeatherDisplay:10.37,2013-10-26 23:39:00,
2013-10-26 18:41:00,44.4,21.6,28.85,North,0,6.9,6.9,40,0.00,CLR,,0.00,WeatherDisplay:10.37,2013-10-26 23:41:00,
2013-10-26 18:43:00,44.2,22.0,28.85,NNW,338,6.9,6.9,41,0.00,CLR,,0.00,WeatherDisplay:10.37,2013-10-26 23:43:00,
2013-10-26 18:44:00,44.2,22.0,28.85,WNW,292,6.9,6.9,41,0.00,CLR,,0.00,WeatherDisplay:10.37,2013-10-26 23:44:00,
2013-10-26 18:45:00,44.2,22.0,28.85,NW,315,4.6,4.6,41,0.00,CLR,,0.00,WeatherDisplay:10.37,2013-10-26 23:45:00,
2013-10-26 18:46:00,44.2,22.0,28.85,WSW,248,4.0,4.0,41,0.00,CLR,,0.00,WeatherDisplay:10.37,2013-10-26 23:46:00,
2013-10-26 18:47:00,44.2,22.0,28.85,WNW,292,4.6,4.6,41,0.00,CLR,,0.00,WeatherDisplay:10.37,2013-10-26 23:47:00,
2013-10-26 18:48:00,44.2,22.0,28.85,NW,315,5.8,5.8,41,0.00,CLR,,0.00,WeatherDisplay:10.37,2013-10-26 23:48:00,
2013-10-26 18:49:00,44.2,22.0,28.85,WNW,292,5.8,5.8,41,0.00,CLR,,0.00,WeatherDisplay:10.37,2013-10-26 23:49:00,
2013-10-26 18:50:00,44.2,22.0,28.85,WNW,292,4.6,4.6,41,0.00,CLR,,0.00,WeatherDisplay:10.37,2013-10-26 23:50:00,
2013-10-26 18:51:00,44.2,22.0,28.85,NW,315,3.5,3.5,41,0.00,CLR,,0.00,WeatherDisplay:10.37,2013-10-26 23:51:00,
2013-10-26 18:52:00,44.2,22.0,28.85,WSW,248,3.5,3.5,41,0.00,CLR,,0.00,WeatherDisplay:10.37,2013-10-26 23:52:00,
2013-10-26 18:54:00,44.2,22.0,28.85,WNW,292,6.2,6.2,41,0.00,CLR,,0.00,WeatherDisplay:10.37,2013-10-26 23:54:00,
2013-10-26 18:56:00,44.2,22.0,28.85,WNW,292,3.5,3.5,41,0.00,CLR,,0.00,WeatherDisplay:10.37,2013-10-26 23:56:00,
2013-10-26 18:57:00,44.2,22.0,28.85,West,270,5.6,5.6,41,0.00,CLR,,0.00,WeatherDisplay:10.37,2013-10-26 23:57:00,
2013-10-26 18:59:00,44.2,22.0,28.85,NW,315,4.6,4.6,41,0.00,CLR,,0.00,WeatherDisplay:10.37,2013-10-26 23:59:00,
2013-10-26 19:01:00,44.2,22.0,28.85,West,270,9.2,9.2,41,0.00,CLR,,0.00,WeatherDisplay:10.37,2013-10-27 00:01:00,
2013-10-26 19:02:00,44.2,22.0,28.85,NW,315,5.8,5.8,41,0.00,CLR,,0.00,WeatherDisplay:10.37,2013-10-27 00:02:00,
2013-10-26 19:04:00,44.1,21.8,28.85,NW,315,3.5,3.5,41,0.00,CLR,,0.00,WeatherDisplay:10.37,2013-10-27 00:04:00,
2013-10-26 19:06:00,44.1,21.8,28.85,NNE,22,3.6,3.6,41,0.00,CLR,,0.00,WeatherDisplay:10.37,2013-10-27 00:06:00,
2013-10-26 19:07:00,44.1,21.8,28.85,NW,315,3.5,3.5,41,0.00,CLR,,0.00,WeatherDisplay:10.37,2013-10-27 00:07:00,
2013-10-26 19:09:00,44.1,21.8,28.85,NNW,338,3.5,3.5,41,0.00,CLR,,0.00,WeatherDisplay:10.37,2013-10-27 00:09:00,
2013-10-26 19:10:00,44.1,22.4,28.85,NW,315,3.5,3.5,42,0.00,CLR,,0.00,WeatherDisplay:10.37,2013-10-27 00:10:00,
2013-10-26 19:11:00,44.1,22.4,28.85,North,0,3.5,3.5,42,0.00,CLR,,0.00,WeatherDisplay:10.37,2013-10-27 00:11:00,
2013-10-26 19:12:00,44.1,22.4,28.85,WNW,292,3.5,3.5,42,0.00,CLR,,0.00,WeatherDisplay:10.37,2013-10-27 00:12:00,
2013-10-26 19:13:00,44.1,22.4,28.85,WNW,292,3.5,3.5,42,0.00,CLR,,0.00,WeatherDisplay:10.37,2013-10-27 00:13:00,
2013-10-26 19:14:00,43.9,22.2,28.85,WNW,292,2.3,2.6,42,0.00,CLR,,0.00,WeatherDisplay:10.37,2013-10-27 00:14:00,
2013-10-26 19:15:00,43.9,22.2,28.85,WNW,292,2.3,2.6,42,0.00,CLR,,0.00,WeatherDisplay:10.37,2013-10-27 00:15:00,
2013-10-26 19:16:00,43.9,22.2,28.85,NNW,338,3.5,3.5,42,0.00,CLR,,0.00,WeatherDisplay:10.37,2013-10-27 00:16:00,
2013-10-26 19:17:00,43.7,22.1,28.85,NW,315,3.5,3.5,42,0.00,CLR,,0.00,WeatherDisplay:10.37,2013-10-27 00:17:00,
2013-10-26 19:18:00,43.7,22.1,28.85,WNW,292,3.5,3.5,42,0.00,CLR,,0.00,WeatherDisplay:10.37,2013-10-27 00:18:00,
2013-10-26 19:20:00,43.7,22.1,28.85,NNW,338,5.8,5.8,42,0.00,CLR,,0.00,WeatherDisplay:10.37,2013-10-27 00:20:00,
2013-10-26 19:21:00,43.7,22.1,28.85,NW,315,4.6,4.6,42,0.00,CLR,,0.00,WeatherDisplay:10.37,2013-10-27 00:21:00,
2013-10-26 19:22:00,43.7,22.1,28.85,NW,315,4.6,4.6,42,0.00,CLR,,0.00,WeatherDisplay:10.37,2013-10-27 00:22:00,
2013-10-26 19:23:00,43.7,22.1,28.85,NNW,338,3.1,3.1,42,0.00,CLR,,0.00,WeatherDisplay:10.37,2013-10-27 00:23:00,
2013-10-26 19:25:00,43.7,22.1,28.85,North,0,2.3,2.4,42,0.00,CLR,,0.00,WeatherDisplay:10.37,2013-10-27 00:25:00,
2013-10-26 19:28:00,43.7,22.6,28.85,West,270,4.6,4.6,43,0.00,CLR,,0.00,WeatherDisplay:10.37,2013-10-27 00:28:00,
2013-10-26 19:30:00,43.7,22.6,28.85,WSW,248,5.8,5.8,43,0.00,CLR,,0.00,WeatherDisplay:10.37,2013-10-27 00:30:00,
2013-10-26 19:31:00,43.7,22.6,28.85,NNW,338,5.8,5.8,43,0.00,CLR,,0.00,WeatherDisplay:10.37,2013-10-27 00:31:00,
2013-10-26 19:33:00,43.7,22.6,28.85,West,270,4.6,4.6,43,0.00,CLR,,0.00,WeatherDisplay:10.37,2013-10-27 00:33:00,
2013-10-26 19:34:00,43.7,22.6,28.85,NW,315,4.6,4.6,43,0.00,CLR,,0.00,WeatherDisplay:10.37,2013-10-27 00:34:00,
2013-10-26 19:35:00,43.7,22.6,28.85,NW,315,4.6,4.6,43,0.00,CLR,,0.00,WeatherDisplay:10.37,2013-10-27 00:35:00,
2013-10-26 19:36:00,43.7,22.6,28.85,WNW,292,4.6,4.6,43,0.00,CLR,,0.00,WeatherDisplay:10.37,2013-10-27 00:36:00,
2013-10-26 19:39:00,43.7,22.6,28.85,NNW,338,3.5,3.5,43,0.00,CLR,,0.00,WeatherDisplay:10.37,2013-10-27 00:39:00,
2013-10-26 19:41:00,43.5,22.5,28.85,WSW,248,3.5,3.5,43,0.00,CLR,,0.00,WeatherDisplay:10.37,2013-10-27 00:41:00,
2013-10-26 19:42:00,43.5,22.5,28.85,NW,315,4.3,4.3,43,0.00,CLR,,0.00,WeatherDisplay:10.37,2013-10-27 00:42:00,
2013-10-26 19:44:00,43.5,22.5,28.85,NW,315,2.3,2.3,43,0.00,CLR,,0.00,WeatherDisplay:10.37,2013-10-27 00:44:00,
2013-10-26 19:46:00,43.3,22.3,28.85,SSW,202,5.8,5.8,43,0.00,CLR,,0.00,WeatherDisplay:10.37,2013-10-27 00:46:00,
2013-10-26 19:47:00,43.3,22.3,28.85,NW,315,2.3,2.4,43,0.00,CLR,,0.00,WeatherDisplay:10.37,2013-10-27 00:47:00,
2013-10-26 19:49:00,43.3,22.3,28.85,WNW,292,4.6,4.6,43,0.00,CLR,,0.00,WeatherDisplay:10.37,2013-10-27 00:49:00,
2013-10-26 19:52:00,43.3,22.9,28.85,West,270,4.3,4.3,44,0.00,CLR,,0.00,WeatherDisplay:10.37,2013-10-27 00:52:00,
2013-10-26 19:54:00,43.3,22.9,28.85,NW,315,3.5,3.5,44,0.00,CLR,,0.00,WeatherDisplay:10.37,2013-10-27 00:54:00,
2013-10-26 19:57:00,43.3,22.9,28.85,WNW,292,4.6,4.6,44,0.00,CLR,,0.00,WeatherDisplay:10.37,2013-10-27 00:57:00,
2013-10-26 19:58:00,43.3,22.9,28.85,WNW,292,4.6,4.6,44,0.00,CLR,,0.00,WeatherDisplay:10.37,2013-10-27 00:58:00,
2013-10-26 19:59:00,43.2,22.7,28.85,NW,315,3.3,3.3,44,0.00,CLR,,0.00,WeatherDisplay:10.37,2013-10-27 00:59:00,
2013-10-26 20:00:00,43.2,22.7,28.85,WNW,292,3.5,3.5,44,0.00,CLR,,0.00,WeatherDisplay:10.37,2013-10-27 01:00:00,
2013-10-26 20:01:00,43.2,22.7,28.85,WNW,292,3.5,3.5,44,0.00,CLR,,0.00,WeatherDisplay:10.37,2013-10-27 01:01:00,
2013-10-26 20:02:00,43.2,22.7,28.85,NNW,338,3.5,3.5,44,0.00,CLR,,0.00,WeatherDisplay:10.37,2013-10-27 01:02:00,
2013-10-26 20:03:00,43.2,22.7,28.85,WNW,292,3.5,3.5,44,0.00,CLR,,0.00,WeatherDisplay:10.37,2013-10-27 01:03:00,
2013-10-26 20:04:00,43.2,22.7,28.85,West,270,2.3,2.3,44,0.00,CLR,,0.00,WeatherDisplay:10.37,2013-10-27 01:04:00,
2013-10-26 20:05:00,43.2,22.7,28.85,West,270,3.5,3.5,44,0.00,CLR,,0.00,WeatherDisplay:10.37,2013-10-27 01:05:00,
2013-10-26 20:06:00,43.2,22.7,28.85,West,270,3.6,3.6,44,0.00,CLR,,0.00,WeatherDisplay:10.37,2013-10-27 01:06:00,
2013-10-26 20:08:00,43.0,22.5,28.85,West,270,4.6,4.6,44,0.00,CLR,,0.00,WeatherDisplay:10.37,2013-10-27 01:08:00,
2013-10-26 20:09:00,43.2,22.7,28.85,West,270,3.5,3.5,44,0.00,CLR,,0.00,WeatherDisplay:10.37,2013-10-27 01:09:00,
2013-10-26 20:10:00,43.0,22.5,28.85,North,0,4.6,4.6,44,0.00,CLR,,0.00,WeatherDisplay:10.37,2013-10-27 01:10:00,
2013-10-26 20:11:00,43.0,22.5,28.85,WSW,248,3.5,3.5,44,0.00,CLR,,0.00,WeatherDisplay:10.37,2013-10-27 01:11:00,
2013-10-26 20:13:00,43.0,22.5,28.85,WNW,292,3.5,3.5,44,0.00,CLR,,0.00,WeatherDisplay:10.37,2013-10-27 01:13:00,
2013-10-26 20:14:00,43.0,22.5,28.85,West,270,3.5,3.5,44,0.00,CLR,,0.00,WeatherDisplay:10.37,2013-10-27 01:14:00,
2013-10-26 20:15:00,42.8,22.4,28.85,WNW,292,2.9,2.9,44,0.00,CLR,,0.00,WeatherDisplay:10.37,2013-10-27 01:15:00,
2013-10-26 20:16:00,42.8,22.9,28.85,WNW,292,3.5,3.5,45,0.00,CLR,,0.00,WeatherDisplay:10.37,2013-10-27 01:16:00,
2013-10-26 20:18:00,42.8,22.9,28.85,WNW,292,3.3,3.3,45,0.00,CLR,,0.00,WeatherDisplay:10.37,2013-10-27 01:18:00,
2013-10-26 20:19:00,42.8,22.9,28.85,NW,315,3.5,3.5,45,0.00,CLR,,0.00,WeatherDisplay:10.37,2013-10-27 01:19:00,
2013-10-26 20:20:00,42.6,23.3,28.85,West,270,3.8,3.8,46,0.00,CLR,,0.00,WeatherDisplay:10.37,2013-10-27 01:20:00,
2013-10-26 20:22:00,42.6,23.3,28.85,NW,315,4.6,4.6,46,0.00,CLR,,0.00,WeatherDisplay:10.37,2013-10-27 01:22:00,
2013-10-26 20:23:00,42.6,23.3,28.85,WNW,292,5.8,5.8,46,0.00,CLR,,0.00,WeatherDisplay:10.37,2013-10-27 01:23:00,
2013-10-26 20:24:00,42.6,23.3,28.85,NW,315,5.8,5.8,46,0.00,CLR,,0.00,WeatherDisplay:10.37,2013-10-27 01:24:00,
2013-10-26 20:25:00,42.6,23.3,28.82,WNW,292,5.8,5.8,46,0.00,CLR,,0.00,WeatherDisplay:10.37,2013-10-27 01:25:00,
2013-10-26 20:28:00,42.4,23.1,28.82,West,270,4.6,4.6,46,0.00,CLR,,0.00,WeatherDisplay:10.37,2013-10-27 01:28:00,
2013-10-26 20:29:00,42.4,23.1,28.82,NW,315,3.5,3.5,46,0.00,CLR,,0.00,WeatherDisplay:10.37,2013-10-27 01:29:00,
2013-10-26 20:30:00,42.4,23.1,28.82,WNW,292,3.5,3.5,46,0.00,CLR,,0.00,WeatherDisplay:10.37,2013-10-27 01:30:00,
2013-10-26 20:33:00,42.4,23.1,28.82,WNW,292,3.5,3.5,46,0.00,CLR,,0.00,WeatherDisplay:10.37,2013-10-27 01:33:00,
2013-10-26 20:34:00,42.4,23.1,28.82,West,270,3.5,3.5,46,0.00,CLR,,0.00,WeatherDisplay:10.37,2013-10-27 01:34:00,
2013-10-26 20:35:00,42.4,23.1,28.82,NW,315,2.3,2.4,46,0.00,CLR,,0.00,WeatherDisplay:10.37,2013-10-27 01:35:00,
2013-10-26 20:36:00,42.4,23.1,28.82,NW,315,4.6,4.6,46,0.00,CLR,,0.00,WeatherDisplay:10.37,2013-10-27 01:36:00,
2013-10-26 20:38:00,42.4,23.1,28.82,WNW,292,3.5,3.5,46,0.00,CLR,,0.00,WeatherDisplay:10.37,2013-10-27 01:38:00,
2013-10-26 20:39:00,42.3,22.9,28.85,NW,315,2.3,2.3,46,0.00,CLR,,0.00,WeatherDisplay:10.37,2013-10-27 01:39:00,
2013-10-26 20:40:00,42.3,22.9,28.85,NW,315,2.3,2.3,46,0.00,CLR,,0.00,WeatherDisplay:10.37,2013-10-27 01:40:00,
2013-10-26 20:41:00,42.3,22.9,28.85,West,270,3.5,3.5,46,0.00,CLR,,0.00,WeatherDisplay:10.37,2013-10-27 01:41:00,
2013-10-26 20:44:00,42.3,22.9,28.85,WNW,292,3.5,3.5,46,0.00,CLR,,0.00,WeatherDisplay:10.37,2013-10-27 01:44:00,
2013-10-26 20:45:00,42.3,22.9,28.85,WNW,292,2.6,2.6,46,0.00,CLR,,0.00,WeatherDisplay:10.37,2013-10-27 01:45:00,
2013-10-26 20:46:00,42.3,23.4,28.85,WNW,292,4.6,4.6,47,0.00,CLR,,0.00,WeatherDisplay:10.37,2013-10-27 01:46:00,
2013-10-26 20:47:00,42.3,23.4,28.85,NW,315,4.6,4.6,47,0.00,CLR,,0.00,WeatherDisplay:10.37,2013-10-27 01:47:00,
2013-10-26 20:50:00,42.3,23.4,28.85,WNW,292,5.8,5.8,47,0.00,CLR,,0.00,WeatherDisplay:10.37,2013-10-27 01:50:00,
2013-10-26 20:51:00,42.1,23.3,28.85,NW,315,3.5,3.5,47,0.00,CLR,,0.00,WeatherDisplay:10.37,2013-10-27 01:51:00,
2013-10-26 20:52:00,42.1,23.3,28.85,NW,315,4.6,4.6,47,0.00,CLR,,0.00,WeatherDisplay:10.37,2013-10-27 01:52:00,
2013-10-26 20:55:00,42.1,23.3,28.85,WNW,292,3.8,3.8,47,0.00,CLR,,0.00,WeatherDisplay:10.37,2013-10-27 01:55:00,
2013-10-26 20:56:00,42.1,23.3,28.85,West,270,3.5,3.5,47,0.00,CLR,,0.00,WeatherDisplay:10.37,2013-10-27 01:56:00,
2013-10-26 20:57:00,42.1,23.3,28.85,NW,315,1.4,1.6,47,0.00,CLR,,0.00,WeatherDisplay:10.37,2013-10-27 01:57:00,
2013-10-26 21:00:00,42.1,23.3,28.85,West,270,3.5,3.5,47,0.00,CLR,,0.00,WeatherDisplay:10.37,2013-10-27 02:00:00,
2013-10-26 21:01:00,42.1,23.3,28.85,NW,315,3.5,3.5,47,0.00,CLR,,0.00,WeatherDisplay:10.37,2013-10-27 02:01:00,
2013-10-26 21:02:00,41.9,23.1,28.85,NW,315,3.5,3.5,47,0.00,CLR,,0.00,WeatherDisplay:10.37,2013-10-27 02:02:00,
2013-10-26 21:06:00,42.1,23.8,28.85,SW,225,5.8,5.8,48,0.00,CLR,,0.00,WeatherDisplay:10.37,2013-10-27 02:06:00,
2013-10-26 21:07:00,42.1,23.8,28.85,WNW,292,4.6,4.6,48,0.00,CLR,,0.00,WeatherDisplay:10.37,2013-10-27 02:07:00,
2013-10-26 21:11:00,41.9,23.6,28.85,NW,315,2.3,2.3,48,0.00,CLR,,0.00,WeatherDisplay:10.37,2013-10-27 02:11:00,
2013-10-26 21:12:00,41.9,23.6,28.85,NW,315,4.7,0.0,48,0.00,CLR,,0.00,WeatherDisplay:10.37,2013-10-27 02:12:00,
2013-10-26 21:13:00,41.9,23.6,28.85,NW,315,4.6,4.6,48,0.00,CLR,,0.00,WeatherDisplay:10.37,2013-10-27 02:13:00,
2013-10-26 21:14:00,41.9,23.6,28.85,NW,315,2.3,2.3,48,0.00,CLR,,0.00,WeatherDisplay:10.37,2013-10-27 02:14:00,
2013-10-26 21:16:00,41.9,23.6,28.85,NW,315,2.4,2.4,48,0.00,CLR,,0.00,WeatherDisplay:10.37,2013-10-27 02:16:00,
2013-10-26 21:17:00,41.7,23.5,28.85,West,270,2.3,2.3,48,0.00,CLR,,0.00,WeatherDisplay:10.37,2013-10-27 02:17:00,
2013-10-26 21:18:00,41.7,23.5,28.85,West,270,2.9,2.9,48,0.00,CLR,,0.00,WeatherDisplay:10.37,2013-10-27 02:18:00,
2013-10-26 21:19:00,41.7,23.5,28.85,WNW,292,3.5,3.5,48,0.00,CLR,,0.00,WeatherDisplay:10.37,2013-10-27 02:19:00,
2013-10-26 21:21:00,41.7,23.5,28.85,WSW,248,3.5,3.5,48,0.00,CLR,,0.00,WeatherDisplay:10.37,2013-10-27 02:21:00,
2013-10-26 21:22:00,41.7,23.5,28.85,WSW,248,3.5,3.5,48,0.00,CLR,,0.00,WeatherDisplay:10.37,2013-10-27 02:22:00,
2013-10-26 21:23:00,41.5,23.3,28.85,West,270,2.3,2.3,48,0.00,CLR,,0.00,WeatherDisplay:10.37,2013-10-27 02:23:00,
2013-10-26 21:25:00,41.5,23.3,28.85,SW,225,2.3,2.3,48,0.00,CLR,,0.00,WeatherDisplay:10.37,2013-10-27 02:25:00,
2013-10-26 21:26:00,41.5,23.3,28.85,West,270,2.3,2.3,48,0.00,CLR,,0.00,WeatherDisplay:10.37,2013-10-27 02:26:00,
2013-10-26 21:27:00,41.4,23.1,28.85,West,270,3.5,3.5,48,0.00,CLR,,0.00,WeatherDisplay:10.37,2013-10-27 02:27:00,
2013-10-26 21:28:00,41.4,23.1,28.85,WNW,292,2.4,0.0,48,0.00,CLR,,0.00,WeatherDisplay:10.37,2013-10-27 02:28:00,
2013-10-26 21:30:00,41.2,23.0,28.85,West,270,2.3,2.3,48,0.00,CLR,,0.00,WeatherDisplay:10.37,2013-10-27 02:30:00,
2013-10-26 21:31:00,41.2,23.0,28.85,NNW,338,3.5,3.5,48,0.00,CLR,,0.00,WeatherDisplay:10.37,2013-10-27 02:31:00,
2013-10-26 21:33:00,41.2,23.4,28.85,NNW,338,2.3,2.3,49,0.00,CLR,,0.00,WeatherDisplay:10.37,2013-10-27 02:33:00,
2013-10-26 21:34:00,41.2,23.4,28.85,West,270,3.5,3.5,49,0.00,CLR,,0.00,WeatherDisplay:10.37,2013-10-27 02:34:00,
2013-10-26 21:36:00,41.0,23.3,28.85,West,270,0.0,0.0,49,0.00,CLR,,0.00,WeatherDisplay:10.37,2013-10-27 02:36:00,
2013-10-26 21:38:00,40.8,23.1,28.85,WNW,292,2.3,2.3,49,0.00,CLR,,0.00,WeatherDisplay:10.37,2013-10-27 02:38:00,
2013-10-26 21:39:00,40.8,23.1,28.85,West,270,3.5,3.5,49,0.00,CLR,,0.00,WeatherDisplay:10.37,2013-10-27 02:39:00,
2013-10-26 21:41:00,40.6,23.4,28.85,SW,225,3.5,3.5,50,0.00,CLR,,0.00,WeatherDisplay:10.37,2013-10-27 02:41:00,
2013-10-26 21:43:00,40.6,23.4,28.85,NW,315,4.6,4.6,50,0.00,CLR,,0.00,WeatherDisplay:10.37,2013-10-27 02:43:00,
2013-10-26 21:44:00,40.6,22.9,28.85,NW,315,2.3,0.0,49,0.00,CLR,,0.00,WeatherDisplay:10.37,2013-10-27 02:44:00,
2013-10-26 21:46:00,40.5,23.3,28.85,West,270,2.3,2.3,50,0.00,CLR,,0.00,WeatherDisplay:10.37,2013-10-27 02:46:00,
2013-10-26 21:47:00,40.5,23.3,28.85,SW,225,2.3,2.3,50,0.00,CLR,,0.00,WeatherDisplay:10.37,2013-10-27 02:47:00,
2013-10-26 21:48:00,40.5,23.3,28.85,WSW,248,2.3,2.3,50,0.00,CLR,,0.00,WeatherDisplay:10.37,2013-10-27 02:48:00,
2013-10-26 21:50:00,40.3,23.1,28.85,WSW,248,2.9,2.9,50,0.00,CLR,,0.00,WeatherDisplay:10.37,2013-10-27 02:50:00,
2013-10-26 21:51:00,40.3,23.1,28.85,NW,315,2.3,2.3,50,0.00,CLR,,0.00,WeatherDisplay:10.37,2013-10-27 02:51:00,
2013-10-26 21:52:00,40.3,23.1,28.85,NW,315,2.3,2.3,50,0.00,CLR,,0.00,WeatherDisplay:10.37,2013-10-27 02:52:00,
2013-10-26 21:53:00,40.1,22.9,28.85,NW,315,1.4,0.0,50,0.00,CLR,,0.00,WeatherDisplay:10.37,2013-10-27 02:53:00,
2013-10-26 21:54:00,40.1,22.9,28.85,NW,315,1.2,0.0,50,0.00,CLR,,0.00,WeatherDisplay:10.37,2013-10-27 02:54:00,
2013-10-26 21:55:00,40.1,22.9,28.85,NW,315,1.2,0.0,50,0.00,CLR,,0.00,WeatherDisplay:10.37,2013-10-27 02:55:00,
2013-10-26 21:57:00,39.9,22.8,28.85,NW,315,1.2,0.0,50,0.00,CLR,,0.00,WeatherDisplay:10.37,2013-10-27 02:57:00,
2013-10-26 21:59:00,39.9,22.8,28.85,NW,315,1.2,1.6,50,0.00,CLR,,0.00,WeatherDisplay:10.37,2013-10-27 02:59:00,
2013-10-26 22:00:00,39.9,22.8,28.85,NW,315,0.0,0.0,50,0.00,CLR,,0.00,WeatherDisplay:10.37,2013-10-27 03:00:00,
2013-10-26 22:02:00,39.9,22.8,28.85,NW,315,0.0,0.0,50,0.00,CLR,,0.00,WeatherDisplay:10.37,2013-10-27 03:02:00,
2013-10-26 22:04:00,39.9,22.8,28.85,SSW,202,1.4,0.0,50,0.00,CLR,,0.00,WeatherDisplay:10.37,2013-10-27 03:04:00,
2013-10-26 22:05:00,39.9,22.8,28.85,WSW,248,1.2,1.2,50,0.00,CLR,,0.00,WeatherDisplay:10.37,2013-10-27 03:05:00,
2013-10-26 22:07:00,39.7,22.6,28.85,West,270,1.2,0.0,50,0.00,CLR,,0.00,WeatherDisplay:10.37,2013-10-27 03:07:00,
2013-10-26 22:08:00,39.7,22.6,28.85,West,270,1.2,1.2,50,0.00,CLR,,0.00,WeatherDisplay:10.37,2013-10-27 03:08:00,
2013-10-26 22:09:00,39.7,22.6,28.85,WNW,286,0.0,1.0,50,0.00,CLR,,0.00,WeatherDisplay:10.37,2013-10-27 03:09:00,
2013-10-26 22:10:00,39.7,22.6,28.85,West,270,0.0,0.0,50,0.00,CLR,,0.00,WeatherDisplay:10.37,2013-10-27 03:10:00,
2013-10-26 22:12:00,39.4,22.3,28.85,WNW,292,1.2,0.0,50,0.00,CLR,,0.00,WeatherDisplay:10.37,2013-10-27 03:12:00,
2013-10-26 22:13:00,39.4,22.3,28.85,WNW,292,1.2,0.0,50,0.00,CLR,,0.00,WeatherDisplay:10.37,2013-10-27 03:13:00,
2013-10-26 22:15:00,39.4,22.3,28.85,WNW,292,2.3,2.3,50,0.00,CLR,,0.00,WeatherDisplay:10.37,2013-10-27 03:15:00,
2013-10-26 22:17:00,39.2,22.1,28.85,WNW,292,1.2,0.0,50,0.00,CLR,,0.00,WeatherDisplay:10.37,2013-10-27 03:17:00,
2013-10-26 22:18:00,39.2,22.6,28.85,WNW,292,0.0,0.0,51,0.00,CLR,,0.00,WeatherDisplay:10.37,2013-10-27 03:18:00,
2013-10-26 22:20:00,39.0,22.4,28.85,WNW,292,0.0,0.0,51,0.00,CLR,,0.00,WeatherDisplay:10.37,2013-10-27 03:20:00,
2013-10-26 22:21:00,39.0,22.4,28.85,WNW,292,1.2,0.0,51,0.00,CLR,,0.00,WeatherDisplay:10.37,2013-10-27 03:21:00,
2013-10-26 22:22:00,39.0,22.4,28.85,WNW,292,1.2,0.0,51,0.00,CLR,,0.00,WeatherDisplay:10.37,2013-10-27 03:22:00,
2013-10-26 22:23:00,39.0,22.4,28.85,West,270,0.0,0.0,51,0.00,CLR,,0.00,WeatherDisplay:10.37,2013-10-27 03:23:00,
2013-10-26 22:25:00,39.0,22.4,28.85,SSW,202,2.3,2.3,51,0.00,CLR,,0.00,WeatherDisplay:10.37,2013-10-27 03:25:00,
2013-10-26 22:26:00,39.0,22.4,28.85,WSW,248,1.2,0.0,51,0.00,CLR,,0.00,WeatherDisplay:10.37,2013-10-27 03:26:00,
2013-10-26 22:27:00,39.0,22.4,28.85,West,270,2.3,2.3,51,0.00,CLR,,0.00,WeatherDisplay:10.37,2013-10-27 03:27:00,
2013-10-26 22:28:00,39.0,22.4,28.85,WSW,248,2.3,2.3,51,0.00,CLR,,0.00,WeatherDisplay:10.37,2013-10-27 03:28:00,
2013-10-26 22:29:00,39.0,22.4,28.85,West,270,2.3,2.3,51,0.00,CLR,,0.00,WeatherDisplay:10.37,2013-10-27 03:29:00,
2013-10-26 22:31:00,39.0,22.4,28.85,WSW,248,2.3,2.3,51,0.00,CLR,,0.00,WeatherDisplay:10.37,2013-10-27 03:31:00,
2013-10-26 22:32:00,39.0,22.4,28.85,West,270,2.3,2.3,51,0.00,CLR,,0.00,WeatherDisplay:10.37,2013-10-27 03:32:00,
2013-10-26 22:33:00,39.0,22.9,28.85,West,270,2.3,2.3,52,0.00,CLR,,0.00,WeatherDisplay:10.37,2013-10-27 03:33:00,
2013-10-26 22:34:00,39.0,22.9,28.85,West,270,1.2,1.2,52,0.00,CLR,,0.00,WeatherDisplay:10.37,2013-10-27 03:34:00,
2013-10-26 22:36:00,39.0,22.9,28.85,West,270,2.3,0.0,52,0.00,CLR,,0.00,WeatherDisplay:10.37,2013-10-27 03:36:00,
2013-10-26 22:37:00,39.0,22.9,28.85,West,270,0.0,0.0,52,0.00,CLR,,0.00,WeatherDisplay:10.37,2013-10-27 03:37:00,
2013-10-26 22:38:00,39.0,22.9,28.85,West,270,0.0,0.0,52,0.00,CLR,,0.00,WeatherDisplay:10.37,2013-10-27 03:38:00,
2013-10-26 22:39:00,39.0,22.9,28.85,West,270,1.2,0.0,52,0.00,CLR,,0.00,WeatherDisplay:10.37,2013-10-27 03:39:00,
2013-10-26 22:41:00,38.8,22.7,28.85,West,270,0.0,0.0,52,0.00,CLR,,0.00,WeatherDisplay:10.37,2013-10-27 03:41:00,
2013-10-26 22:42:00,38.8,22.7,28.85,West,270,0.0,0.0,52,0.00,CLR,,0.00,WeatherDisplay:10.37,2013-10-27 03:42:00,
2013-10-26 22:43:00,38.8,22.7,28.85,WSW,248,0.0,0.0,52,0.00,CLR,,0.00,WeatherDisplay:10.37,2013-10-27 03:43:00,
2013-10-26 22:44:00,38.8,22.7,28.85,SSW,202,1.2,0.0,52,0.00,CLR,,0.00,WeatherDisplay:10.37,2013-10-27 03:44:00,
2013-10-26 22:47:00,38.7,22.5,28.85,SSW,202,0.0,0.0,52,0.00,CLR,,0.00,WeatherDisplay:10.37,2013-10-27 03:47:00,
2013-10-26 22:48:00,38.7,22.5,28.85,South,180,1.6,1.6,52,0.00,CLR,,0.00,WeatherDisplay:10.37,2013-10-27 03:48:00,
2013-10-26 22:49:00,38.7,22.5,28.85,South,180,1.6,1.6,52,0.00,CLR,,0.00,WeatherDisplay:10.37,2013-10-27 03:49:00,
2013-10-26 22:52:00,38.5,22.8,28.85,South,180,1.2,0.0,53,0.00,CLR,,0.00,WeatherDisplay:10.37,2013-10-27 03:52:00,
2013-10-26 22:54:00,38.5,22.8,28.85,South,180,0.0,0.0,53,0.00,CLR,,0.00,WeatherDisplay:10.37,2013-10-27 03:54:00,
2013-10-26 22:55:00,38.5,22.8,28.88,South,180,0.0,0.0,53,0.00,CLR,,0.00,WeatherDisplay:10.37,2013-10-27 03:55:00,
2013-10-26 22:57:00,38.3,22.2,28.88,West,270,1.4,1.6,52,0.00,CLR,,0.00,WeatherDisplay:10.37,2013-10-27 03:57:00,
2013-10-26 22:59:00,38.3,22.2,28.88,West,270,2.0,2.0,52,0.00,CLR,,0.00,WeatherDisplay:10.37,2013-10-27 03:59:00,
2013-10-26 23:00:00,38.3,22.2,28.88,WNW,292,2.3,2.3,52,0.00,CLR,,0.00,WeatherDisplay:10.37,2013-10-27 04:00:00,
2013-10-26 23:01:00,38.3,22.2,28.88,WNW,292,2.3,2.3,52,0.00,CLR,,0.00,WeatherDisplay:10.37,2013-10-27 04:01:00,
2013-10-26 23:02:00,38.3,22.2,28.88,WNW,292,1.2,1.4,52,0.00,CLR,,0.00,WeatherDisplay:10.37,2013-10-27 04:02:00,
2013-10-26 23:06:00,38.1,22.5,28.88,WSW,248,2.3,0.0,53,0.00,CLR,,0.00,WeatherDisplay:10.37,2013-10-27 04:06:00,
2013-10-26 23:07:00,38.1,22.5,28.88,WSW,248,2.3,2.3,53,0.00,CLR,,0.00,WeatherDisplay:10.37,2013-10-27 04:07:00,
2013-10-26 23:11:00,38.1,22.5,28.82,West,270,1.2,0.0,53,0.00,CLR,,0.00,WeatherDisplay:10.37,2013-10-27 04:11:00,
2013-10-26 23:12:00,38.1,22.5,28.82,WSW,248,1.2,0.0,53,0.00,CLR,,0.00,WeatherDisplay:10.37,2013-10-27 04:12:00,
2013-10-26 23:16:00,37.9,22.3,28.82,West,270,2.3,2.3,53,0.00,CLR,,0.00,WeatherDisplay:10.37,2013-10-27 04:16:00,
2013-10-26 23:17:00,37.9,22.3,28.82,WSW,248,2.3,2.3,53,0.00,CLR,,0.00,WeatherDisplay:10.37,2013-10-27 04:17:00,
2013-10-26 23:21:00,37.8,22.1,28.82,SW,225,0.0,0.0,53,0.00,CLR,,0.00,WeatherDisplay:10.37,2013-10-27 04:21:00,
2013-10-26 23:22:00,37.8,22.1,28.82,SW,225,0.0,0.0,53,0.00,CLR,,0.00,WeatherDisplay:10.37,2013-10-27 04:22:00,
2013-10-26 23:24:00,37.6,22.0,28.82,SW,225,0.0,0.0,53,0.00,CLR,,0.00,WeatherDisplay:10.37,2013-10-27 04:24:00,
2013-10-26 23:26:00,37.4,21.8,28.85,WSW,248,1.2,0.0,53,0.00,CLR,,0.00,WeatherDisplay:10.37,2013-10-27 04:26:00,
2013-10-26 23:27:00,37.4,21.8,28.85,WSW,248,1.2,0.0,53,0.00,CLR,,0.00,WeatherDisplay:10.37,2013-10-27 04:27:00,
2013-10-26 23:28:00,37.4,21.8,28.85,SW,225,0.0,0.0,53,0.00,CLR,,0.00,WeatherDisplay:10.37,2013-10-27 04:28:00,
2013-10-26 23:29:00,37.2,22.1,28.85,WSW,248,1.2,0.0,54,0.00,CLR,,0.00,WeatherDisplay:10.37,2013-10-27 04:29:00,
2013-10-26 23:32:00,37.2,22.1,28.85,West,270,1.2,1.2,54,0.00,CLR,,0.00,WeatherDisplay:10.37,2013-10-27 04:32:00,
2013-10-26 23:33:00,37.2,22.1,28.85,West,270,1.2,0.0,54,0.00,CLR,,0.00,WeatherDisplay:10.37,2013-10-27 04:33:00,
2013-10-26 23:36:00,37.0,21.9,28.85,WSW,248,1.2,0.0,54,0.00,CLR,,0.00,WeatherDisplay:10.37,2013-10-27 04:36:00,
2013-10-26 23:37:00,37.0,21.9,28.85,SW,225,0.0,0.0,54,0.00,CLR,,0.00,WeatherDisplay:10.37,2013-10-27 04:37:00,
2013-10-26 23:38:00,36.9,21.7,28.85,SW,225,0.0,0.0,54,0.00,CLR,,0.00,WeatherDisplay:10.37,2013-10-27 04:38:00,
2013-10-26 23:41:00,36.7,22.0,28.85,SW,225,0.0,0.0,55,0.00,CLR,,0.00,WeatherDisplay:10.37,2013-10-27 04:41:00,
2013-10-26 23:42:00,36.7,22.0,28.85,SW,225,0.0,0.0,55,0.00,CLR,,0.00,WeatherDisplay:10.37,2013-10-27 04:42:00,
2013-10-26 23:43:00,36.5,21.8,28.85,SW,225,0.0,0.0,55,0.00,CLR,,0.00,WeatherDisplay:10.37,2013-10-27 04:43:00,
2013-10-26 23:45:00,36.3,22.1,28.85,SW,225,0.0,0.0,56,0.00,CLR,,0.00,WeatherDisplay:10.37,2013-10-27 04:45:00,
2013-10-26 23:46:00,36.1,21.9,28.85,SW,225,0.0,0.0,56,0.00,CLR,,0.00,WeatherDisplay:10.37,2013-10-27 04:46:00,
2013-10-26 23:47:00,36.1,21.9,28.85,SW,225,0.0,0.0,56,0.00,CLR,,0.00,WeatherDisplay:10.37,2013-10-27 04:47:00,
2013-10-26 23:49:00,36.1,21.9,28.85,SW,225,0.0,0.0,56,0.00,CLR,,0.00,WeatherDisplay:10.37,2013-10-27 04:49:00,
2013-10-26 23:50:00,36.0,21.8,28.85,SW,225,0.0,0.0,56,0.00,CLR,,0.00,WeatherDisplay:10.37,2013-10-27 04:50:00,
2013-10-26 23:51:00,36.0,21.8,28.85,SW,225,0.0,0.0,56,0.00,CLR,,0.00,WeatherDisplay:10.37,2013-10-27 04:51:00,
2013-10-26 23:52:00,36.0,21.8,28.85,SW,225,0.0,0.0,56,0.00,CLR,,0.00,WeatherDisplay:10.37,2013-10-27 04:52:00,
2013-10-26 23:53:00,35.8,22.0,28.85,SW,225,0.0,0.0,57,0.00,CLR,,0.00,WeatherDisplay:10.37,2013-10-27 04:53:00,
2013-10-26 23:54:00,35.8,22.0,28.85,SW,225,0.0,0.0,57,0.00,CLR,,0.00,WeatherDisplay:10.37,2013-10-27 04:54:00,
2013-10-26 23:55:00,35.6,21.9,28.85,SW,225,0.0,0.0,57,0.00,CLR,,0.00,WeatherDisplay:10.37,2013-10-27 04:55:00,
2013-10-26 23:56:00,35.6,21.9,28.85,SW,225,0.0,0.0,57,0.00,CLR,,0.00,WeatherDisplay:10.37,2013-10-27 04:56:00,
2013-10-26 23:58:00,35.6,21.9,28.85,WNW,292,1.2,0.0,57,0.00,CLR,,0.00,WeatherDisplay:10.37,2013-10-27 04:58:00,
2013-10-26 23:59:00,35.4,22.1,28.85,WNW,292,1.4,1.4,58,0.00,CLR,,0.00,WeatherDisplay:10.37,2013-10-27 04:59:00,